<?xml version="1.0" encoding="UTF-8" standalone="no" ?>
<gpx xmlns="http://www.topografix.com/GPX/1/1" xmlns:xsi="http://www.w3.org/2001/XMLSchema-instance" xsi:schemaLocation="http://www.topografix.com/GPX/1/1 http://www.topografix.com/GPX/1/1/gpx.xsd" version="1.1" creator="VisuGPX - https://www.visugpx.com">
  <metadata>
    <name>CO Jarrie challenge grenebois 2012</name>
    <desc><![CDATA[manche du challenge greneblois 2012 organisé par Orient Alp]]></desc>
  </metadata>
  <trk>
    <name><![CDATA[co jarrie avec emilie]]></name>
    <desc><![CDATA[suivie emilie cause blessure]]></desc>
    <trkseg>
      <trkpt lat="45.12406" lon="5.7362">
        <ele>388</ele>
        <time>2012-06-13T16:37:52.000Z</time>
      </trkpt>
      <trkpt lat="45.12407" lon="5.7362">
        <ele>388</ele>
        <time>2012-06-13T16:37:53.000Z</time>
      </trkpt>
      <trkpt lat="45.12411" lon="5.73619">
        <ele>388.79998779297</ele>
        <time>2012-06-13T16:38:00.000Z</time>
      </trkpt>
      <trkpt lat="45.12412" lon="5.73619">
        <ele>389.79998779297</ele>
        <time>2012-06-13T16:38:08.000Z</time>
      </trkpt>
      <trkpt lat="45.12417" lon="5.73618">
        <ele>390.39999389648</ele>
        <time>2012-06-13T16:38:13.000Z</time>
      </trkpt>
      <trkpt lat="45.12424" lon="5.73616">
        <ele>390.39999389648</ele>
        <time>2012-06-13T16:38:21.000Z</time>
      </trkpt>
      <trkpt lat="45.12433" lon="5.73612">
        <ele>390.79998779297</ele>
        <time>2012-06-13T16:38:29.000Z</time>
      </trkpt>
      <trkpt lat="45.1244" lon="5.7361">
        <ele>390.79998779297</ele>
        <time>2012-06-13T16:38:36.000Z</time>
      </trkpt>
      <trkpt lat="45.12448" lon="5.73607">
        <ele>390.79998779297</ele>
        <time>2012-06-13T16:38:44.000Z</time>
      </trkpt>
      <trkpt lat="45.12454" lon="5.73605">
        <ele>389.79998779297</ele>
        <time>2012-06-13T16:38:51.000Z</time>
      </trkpt>
      <trkpt lat="45.12463" lon="5.73603">
        <ele>390.79998779297</ele>
        <time>2012-06-13T16:39:00.000Z</time>
      </trkpt>
      <trkpt lat="45.1247" lon="5.73602">
        <ele>392.20001220703</ele>
        <time>2012-06-13T16:39:07.000Z</time>
      </trkpt>
      <trkpt lat="45.12475" lon="5.73601">
        <ele>394.60000610352</ele>
        <time>2012-06-13T16:39:13.000Z</time>
      </trkpt>
      <trkpt lat="45.12485" lon="5.73602">
        <ele>397</ele>
        <time>2012-06-13T16:39:21.000Z</time>
      </trkpt>
      <trkpt lat="45.12486" lon="5.73602">
        <ele>397</ele>
        <time>2012-06-13T16:39:22.000Z</time>
      </trkpt>
      <trkpt lat="45.12492" lon="5.73601">
        <ele>397.60000610352</ele>
        <time>2012-06-13T16:39:29.000Z</time>
      </trkpt>
      <trkpt lat="45.12502" lon="5.736">
        <ele>397.60000610352</ele>
        <time>2012-06-13T16:39:37.000Z</time>
      </trkpt>
      <trkpt lat="45.12504" lon="5.736">
        <ele>397.60000610352</ele>
        <time>2012-06-13T16:39:38.000Z</time>
      </trkpt>
      <trkpt lat="45.12511" lon="5.73598">
        <ele>397</ele>
        <time>2012-06-13T16:39:42.000Z</time>
      </trkpt>
      <trkpt lat="45.12525" lon="5.73596">
        <ele>400</ele>
        <time>2012-06-13T16:39:50.000Z</time>
      </trkpt>
      <trkpt lat="45.12526" lon="5.73596">
        <ele>400</ele>
        <time>2012-06-13T16:39:51.000Z</time>
      </trkpt>
      <trkpt lat="45.12535" lon="5.73595">
        <ele>400.39999389648</ele>
        <time>2012-06-13T16:39:55.000Z</time>
      </trkpt>
      <trkpt lat="45.12544" lon="5.73595">
        <ele>402.39999389648</ele>
        <time>2012-06-13T16:40:00.000Z</time>
      </trkpt>
      <trkpt lat="45.12545" lon="5.73595">
        <ele>402.79998779297</ele>
        <time>2012-06-13T16:40:01.000Z</time>
      </trkpt>
      <trkpt lat="45.12558" lon="5.73594">
        <ele>404.79998779297</ele>
        <time>2012-06-13T16:40:07.000Z</time>
      </trkpt>
      <trkpt lat="45.12567" lon="5.73592">
        <ele>405.20001220703</ele>
        <time>2012-06-13T16:40:13.000Z</time>
      </trkpt>
      <trkpt lat="45.12576" lon="5.73589">
        <ele>405.79998779297</ele>
        <time>2012-06-13T16:40:20.000Z</time>
      </trkpt>
      <trkpt lat="45.12579" lon="5.73589">
        <ele>406.20001220703</ele>
        <time>2012-06-13T16:40:23.000Z</time>
      </trkpt>
      <trkpt lat="45.12587" lon="5.73584">
        <ele>406.20001220703</ele>
        <time>2012-06-13T16:40:30.000Z</time>
      </trkpt>
      <trkpt lat="45.12592" lon="5.73582">
        <ele>406.60000610352</ele>
        <time>2012-06-13T16:40:34.000Z</time>
      </trkpt>
      <trkpt lat="45.12596" lon="5.7358">
        <ele>407.20001220703</ele>
        <time>2012-06-13T16:40:38.000Z</time>
      </trkpt>
      <trkpt lat="45.12602" lon="5.73579">
        <ele>407.60000610352</ele>
        <time>2012-06-13T16:40:42.000Z</time>
      </trkpt>
      <trkpt lat="45.12611" lon="5.73575">
        <ele>408.20001220703</ele>
        <time>2012-06-13T16:40:49.000Z</time>
      </trkpt>
      <trkpt lat="45.12615" lon="5.73574">
        <ele>406.20001220703</ele>
        <time>2012-06-13T16:40:53.000Z</time>
      </trkpt>
      <trkpt lat="45.12624" lon="5.73572">
        <ele>405.79998779297</ele>
        <time>2012-06-13T16:41:00.000Z</time>
      </trkpt>
      <trkpt lat="45.12631" lon="5.73568">
        <ele>406.60000610352</ele>
        <time>2012-06-13T16:41:06.000Z</time>
      </trkpt>
      <trkpt lat="45.12639" lon="5.73565">
        <ele>406.60000610352</ele>
        <time>2012-06-13T16:41:11.000Z</time>
      </trkpt>
      <trkpt lat="45.12642" lon="5.73564">
        <ele>407.20001220703</ele>
        <time>2012-06-13T16:41:12.000Z</time>
      </trkpt>
      <trkpt lat="45.1265" lon="5.73561">
        <ele>408.20001220703</ele>
        <time>2012-06-13T16:41:16.000Z</time>
      </trkpt>
      <trkpt lat="45.12664" lon="5.73547">
        <ele>409</ele>
        <time>2012-06-13T16:41:23.000Z</time>
      </trkpt>
      <trkpt lat="45.1267" lon="5.73537">
        <ele>411</ele>
        <time>2012-06-13T16:41:28.000Z</time>
      </trkpt>
      <trkpt lat="45.12672" lon="5.73534">
        <ele>411.39999389648</ele>
        <time>2012-06-13T16:41:31.000Z</time>
      </trkpt>
      <trkpt lat="45.12677" lon="5.73521">
        <ele>410.60000610352</ele>
        <time>2012-06-13T16:41:40.000Z</time>
      </trkpt>
      <trkpt lat="45.12681" lon="5.73513">
        <ele>410.60000610352</ele>
        <time>2012-06-13T16:41:45.000Z</time>
      </trkpt>
      <trkpt lat="45.12683" lon="5.73507">
        <ele>413.79998779297</ele>
        <time>2012-06-13T16:41:50.000Z</time>
      </trkpt>
      <trkpt lat="45.12686" lon="5.73499">
        <ele>415.39999389648</ele>
        <time>2012-06-13T16:41:56.000Z</time>
      </trkpt>
      <trkpt lat="45.12688" lon="5.73494">
        <ele>415.39999389648</ele>
        <time>2012-06-13T16:41:59.000Z</time>
      </trkpt>
      <trkpt lat="45.1269" lon="5.73487">
        <ele>415.39999389648</ele>
        <time>2012-06-13T16:42:03.000Z</time>
      </trkpt>
      <trkpt lat="45.12691" lon="5.73485">
        <ele>416.20001220703</ele>
        <time>2012-06-13T16:42:05.000Z</time>
      </trkpt>
      <trkpt lat="45.12692" lon="5.73481">
        <ele>417.79998779297</ele>
        <time>2012-06-13T16:42:08.000Z</time>
      </trkpt>
      <trkpt lat="45.12695" lon="5.73476">
        <ele>417.79998779297</ele>
        <time>2012-06-13T16:42:12.000Z</time>
      </trkpt>
      <trkpt lat="45.12698" lon="5.73468">
        <ele>419.20001220703</ele>
        <time>2012-06-13T16:42:18.000Z</time>
      </trkpt>
      <trkpt lat="45.12706" lon="5.73462">
        <ele>421.60000610352</ele>
        <time>2012-06-13T16:42:24.000Z</time>
      </trkpt>
      <trkpt lat="45.12709" lon="5.7346">
        <ele>422.60000610352</ele>
        <time>2012-06-13T16:42:29.000Z</time>
      </trkpt>
      <trkpt lat="45.12715" lon="5.73451">
        <ele>422.60000610352</ele>
        <time>2012-06-13T16:42:35.000Z</time>
      </trkpt>
      <trkpt lat="45.12722" lon="5.73448">
        <ele>423.39999389648</ele>
        <time>2012-06-13T16:42:41.000Z</time>
      </trkpt>
      <trkpt lat="45.12728" lon="5.73447">
        <ele>422.60000610352</ele>
        <time>2012-06-13T16:42:46.000Z</time>
      </trkpt>
      <trkpt lat="45.12734" lon="5.73445">
        <ele>423</ele>
        <time>2012-06-13T16:42:51.000Z</time>
      </trkpt>
      <trkpt lat="45.12739" lon="5.73441">
        <ele>424.39999389648</ele>
        <time>2012-06-13T16:42:56.000Z</time>
      </trkpt>
      <trkpt lat="45.12748" lon="5.73434">
        <ele>426</ele>
        <time>2012-06-13T16:43:01.000Z</time>
      </trkpt>
      <trkpt lat="45.12754" lon="5.7343">
        <ele>431.20001220703</ele>
        <time>2012-06-13T16:43:06.000Z</time>
      </trkpt>
      <trkpt lat="45.12764" lon="5.73433">
        <ele>432.60000610352</ele>
        <time>2012-06-13T16:43:11.000Z</time>
      </trkpt>
      <trkpt lat="45.12777" lon="5.73431">
        <ele>432.60000610352</ele>
        <time>2012-06-13T16:43:16.000Z</time>
      </trkpt>
      <trkpt lat="45.1278" lon="5.7343">
        <ele>433.20001220703</ele>
        <time>2012-06-13T16:43:17.000Z</time>
      </trkpt>
      <trkpt lat="45.12796" lon="5.73422">
        <ele>432.60000610352</ele>
        <time>2012-06-13T16:43:22.000Z</time>
      </trkpt>
      <trkpt lat="45.12802" lon="5.73416">
        <ele>431.60000610352</ele>
        <time>2012-06-13T16:43:26.000Z</time>
      </trkpt>
      <trkpt lat="45.12804" lon="5.73414">
        <ele>435</ele>
        <time>2012-06-13T16:43:28.000Z</time>
      </trkpt>
      <trkpt lat="45.12811" lon="5.73407">
        <ele>438.39999389648</ele>
        <time>2012-06-13T16:43:34.000Z</time>
      </trkpt>
      <trkpt lat="45.12813" lon="5.73408">
        <ele>439.79998779297</ele>
        <time>2012-06-13T16:43:38.000Z</time>
      </trkpt>
      <trkpt lat="45.12814" lon="5.73408">
        <ele>438.79998779297</ele>
        <time>2012-06-13T16:43:39.000Z</time>
      </trkpt>
      <trkpt lat="45.1282" lon="5.73406">
        <ele>438.39999389648</ele>
        <time>2012-06-13T16:43:48.000Z</time>
      </trkpt>
      <trkpt lat="45.12821" lon="5.73401">
        <ele>438</ele>
        <time>2012-06-13T16:43:52.000Z</time>
      </trkpt>
      <trkpt lat="45.12825" lon="5.73395">
        <ele>438.39999389648</ele>
        <time>2012-06-13T16:43:56.000Z</time>
      </trkpt>
      <trkpt lat="45.12832" lon="5.73388">
        <ele>438.39999389648</ele>
        <time>2012-06-13T16:44:02.000Z</time>
      </trkpt>
      <trkpt lat="45.12839" lon="5.73379">
        <ele>435.60000610352</ele>
        <time>2012-06-13T16:44:09.000Z</time>
      </trkpt>
      <trkpt lat="45.12844" lon="5.73371">
        <ele>433.60000610352</ele>
        <time>2012-06-13T16:44:16.000Z</time>
      </trkpt>
      <trkpt lat="45.12845" lon="5.7337">
        <ele>433.60000610352</ele>
        <time>2012-06-13T16:44:18.000Z</time>
      </trkpt>
      <trkpt lat="45.12855" lon="5.73361">
        <ele>431.20001220703</ele>
        <time>2012-06-13T16:44:24.000Z</time>
      </trkpt>
      <trkpt lat="45.12865" lon="5.73352">
        <ele>431.20001220703</ele>
        <time>2012-06-13T16:44:28.000Z</time>
      </trkpt>
      <trkpt lat="45.1288" lon="5.73348">
        <ele>427.79998779297</ele>
        <time>2012-06-13T16:44:34.000Z</time>
      </trkpt>
      <trkpt lat="45.12893" lon="5.7334">
        <ele>429.79998779297</ele>
        <time>2012-06-13T16:44:40.000Z</time>
      </trkpt>
      <trkpt lat="45.12903" lon="5.73338">
        <ele>430.20001220703</ele>
        <time>2012-06-13T16:44:44.000Z</time>
      </trkpt>
      <trkpt lat="45.12908" lon="5.73336">
        <ele>429.79998779297</ele>
        <time>2012-06-13T16:44:46.000Z</time>
      </trkpt>
      <trkpt lat="45.12917" lon="5.73329">
        <ele>431.20001220703</ele>
        <time>2012-06-13T16:44:50.000Z</time>
      </trkpt>
      <trkpt lat="45.12923" lon="5.73323">
        <ele>431.60000610352</ele>
        <time>2012-06-13T16:44:53.000Z</time>
      </trkpt>
      <trkpt lat="45.12932" lon="5.73316">
        <ele>434</ele>
        <time>2012-06-13T16:44:57.000Z</time>
      </trkpt>
      <trkpt lat="45.12948" lon="5.73306">
        <ele>439.79998779297</ele>
        <time>2012-06-13T16:45:04.000Z</time>
      </trkpt>
      <trkpt lat="45.12958" lon="5.73304">
        <ele>439.39999389648</ele>
        <time>2012-06-13T16:45:07.000Z</time>
      </trkpt>
      <trkpt lat="45.12969" lon="5.73299">
        <ele>440.79998779297</ele>
        <time>2012-06-13T16:45:12.000Z</time>
      </trkpt>
      <trkpt lat="45.12973" lon="5.73296">
        <ele>441.20001220703</ele>
        <time>2012-06-13T16:45:14.000Z</time>
      </trkpt>
      <trkpt lat="45.1298" lon="5.73294">
        <ele>441.20001220703</ele>
        <time>2012-06-13T16:45:21.000Z</time>
      </trkpt>
      <trkpt lat="45.12989" lon="5.7329">
        <ele>435</ele>
        <time>2012-06-13T16:45:36.000Z</time>
      </trkpt>
      <trkpt lat="45.12989" lon="5.73292">
        <ele>437</ele>
        <time>2012-06-13T16:45:48.000Z</time>
      </trkpt>
      <trkpt lat="45.12986" lon="5.73299">
        <ele>437</ele>
        <time>2012-06-13T16:45:52.000Z</time>
      </trkpt>
      <trkpt lat="45.12983" lon="5.73306">
        <ele>437.39999389648</ele>
        <time>2012-06-13T16:45:56.000Z</time>
      </trkpt>
      <trkpt lat="45.12981" lon="5.73322">
        <ele>439.79998779297</ele>
        <time>2012-06-13T16:46:03.000Z</time>
      </trkpt>
      <trkpt lat="45.12981" lon="5.73322">
        <ele>440.39999389648</ele>
        <time>2012-06-13T16:46:04.000Z</time>
      </trkpt>
      <trkpt lat="45.12989" lon="5.73328">
        <ele>443.60000610352</ele>
        <time>2012-06-13T16:46:09.000Z</time>
      </trkpt>
      <trkpt lat="45.12994" lon="5.73336">
        <ele>446.60000610352</ele>
        <time>2012-06-13T16:46:14.000Z</time>
      </trkpt>
      <trkpt lat="45.12994" lon="5.73337">
        <ele>447</ele>
        <time>2012-06-13T16:46:15.000Z</time>
      </trkpt>
      <trkpt lat="45.12997" lon="5.73351">
        <ele>450</ele>
        <time>2012-06-13T16:46:23.000Z</time>
      </trkpt>
      <trkpt lat="45.12997" lon="5.73357">
        <ele>450.39999389648</ele>
        <time>2012-06-13T16:46:27.000Z</time>
      </trkpt>
      <trkpt lat="45.12998" lon="5.73365">
        <ele>452.39999389648</ele>
        <time>2012-06-13T16:46:31.000Z</time>
      </trkpt>
      <trkpt lat="45.12997" lon="5.73373">
        <ele>451.39999389648</ele>
        <time>2012-06-13T16:46:37.000Z</time>
      </trkpt>
      <trkpt lat="45.12996" lon="5.73377">
        <ele>453.79998779297</ele>
        <time>2012-06-13T16:46:44.000Z</time>
      </trkpt>
      <trkpt lat="45.12997" lon="5.73384">
        <ele>453.79998779297</ele>
        <time>2012-06-13T16:46:48.000Z</time>
      </trkpt>
      <trkpt lat="45.12996" lon="5.73392">
        <ele>453.79998779297</ele>
        <time>2012-06-13T16:46:52.000Z</time>
      </trkpt>
      <trkpt lat="45.12997" lon="5.73402">
        <ele>454.20001220703</ele>
        <time>2012-06-13T16:46:57.000Z</time>
      </trkpt>
      <trkpt lat="45.12998" lon="5.73406">
        <ele>453.79998779297</ele>
        <time>2012-06-13T16:46:59.000Z</time>
      </trkpt>
      <trkpt lat="45.13" lon="5.73411">
        <ele>454.79998779297</ele>
        <time>2012-06-13T16:47:03.000Z</time>
      </trkpt>
      <trkpt lat="45.13002" lon="5.73416">
        <ele>455.79998779297</ele>
        <time>2012-06-13T16:47:07.000Z</time>
      </trkpt>
      <trkpt lat="45.13007" lon="5.73425">
        <ele>453.79998779297</ele>
        <time>2012-06-13T16:47:14.000Z</time>
      </trkpt>
      <trkpt lat="45.1301" lon="5.73426">
        <ele>453.79998779297</ele>
        <time>2012-06-13T16:47:20.000Z</time>
      </trkpt>
      <trkpt lat="45.13012" lon="5.73431">
        <ele>453.79998779297</ele>
        <time>2012-06-13T16:47:25.000Z</time>
      </trkpt>
      <trkpt lat="45.13017" lon="5.73435">
        <ele>454.79998779297</ele>
        <time>2012-06-13T16:47:31.000Z</time>
      </trkpt>
      <trkpt lat="45.13018" lon="5.73437">
        <ele>454.79998779297</ele>
        <time>2012-06-13T16:47:32.000Z</time>
      </trkpt>
      <trkpt lat="45.1302" lon="5.73443">
        <ele>455.20001220703</ele>
        <time>2012-06-13T16:47:35.000Z</time>
      </trkpt>
      <trkpt lat="45.13024" lon="5.73447">
        <ele>456.60000610352</ele>
        <time>2012-06-13T16:47:39.000Z</time>
      </trkpt>
      <trkpt lat="45.13026" lon="5.73446">
        <ele>456.20001220703</ele>
        <time>2012-06-13T16:47:43.000Z</time>
      </trkpt>
      <trkpt lat="45.1303" lon="5.7344">
        <ele>456.60000610352</ele>
        <time>2012-06-13T16:47:47.000Z</time>
      </trkpt>
      <trkpt lat="45.13035" lon="5.73439">
        <ele>456.60000610352</ele>
        <time>2012-06-13T16:47:51.000Z</time>
      </trkpt>
      <trkpt lat="45.1304" lon="5.73435">
        <ele>456.20001220703</ele>
        <time>2012-06-13T16:47:56.000Z</time>
      </trkpt>
      <trkpt lat="45.13043" lon="5.73431">
        <ele>458.60000610352</ele>
        <time>2012-06-13T16:48:02.000Z</time>
      </trkpt>
      <trkpt lat="45.13051" lon="5.73431">
        <ele>458.60000610352</ele>
        <time>2012-06-13T16:48:11.000Z</time>
      </trkpt>
      <trkpt lat="45.13054" lon="5.73433">
        <ele>460.60000610352</ele>
        <time>2012-06-13T16:48:19.000Z</time>
      </trkpt>
      <trkpt lat="45.13056" lon="5.73428">
        <ele>463.39999389648</ele>
        <time>2012-06-13T16:48:29.000Z</time>
      </trkpt>
      <trkpt lat="45.13059" lon="5.73429">
        <ele>462.39999389648</ele>
        <time>2012-06-13T16:48:34.000Z</time>
      </trkpt>
      <trkpt lat="45.13061" lon="5.73428">
        <ele>460.60000610352</ele>
        <time>2012-06-13T16:48:42.000Z</time>
      </trkpt>
      <trkpt lat="45.13064" lon="5.73423">
        <ele>461</ele>
        <time>2012-06-13T16:48:48.000Z</time>
      </trkpt>
      <trkpt lat="45.13064" lon="5.73418">
        <ele>460.60000610352</ele>
        <time>2012-06-13T16:48:53.000Z</time>
      </trkpt>
      <trkpt lat="45.13064" lon="5.73413">
        <ele>459.60000610352</ele>
        <time>2012-06-13T16:48:57.000Z</time>
      </trkpt>
      <trkpt lat="45.13064" lon="5.73405">
        <ele>459</ele>
        <time>2012-06-13T16:49:04.000Z</time>
      </trkpt>
      <trkpt lat="45.1306" lon="5.73402">
        <ele>457.20001220703</ele>
        <time>2012-06-13T16:49:09.000Z</time>
      </trkpt>
      <trkpt lat="45.13056" lon="5.734">
        <ele>457.20001220703</ele>
        <time>2012-06-13T16:49:14.000Z</time>
      </trkpt>
      <trkpt lat="45.13051" lon="5.734">
        <ele>456.20001220703</ele>
        <time>2012-06-13T16:49:24.000Z</time>
      </trkpt>
      <trkpt lat="45.13043" lon="5.73397">
        <ele>464.39999389648</ele>
        <time>2012-06-13T16:50:06.000Z</time>
      </trkpt>
      <trkpt lat="45.13038" lon="5.73405">
        <ele>464.39999389648</ele>
        <time>2012-06-13T16:50:13.000Z</time>
      </trkpt>
      <trkpt lat="45.13035" lon="5.73405">
        <ele>460</ele>
        <time>2012-06-13T16:50:19.000Z</time>
      </trkpt>
      <trkpt lat="45.13031" lon="5.73406">
        <ele>458.20001220703</ele>
        <time>2012-06-13T16:50:24.000Z</time>
      </trkpt>
      <trkpt lat="45.13027" lon="5.73404">
        <ele>458.20001220703</ele>
        <time>2012-06-13T16:50:30.000Z</time>
      </trkpt>
      <trkpt lat="45.13023" lon="5.73402">
        <ele>458.20001220703</ele>
        <time>2012-06-13T16:50:36.000Z</time>
      </trkpt>
      <trkpt lat="45.13016" lon="5.734">
        <ele>456.20001220703</ele>
        <time>2012-06-13T16:50:42.000Z</time>
      </trkpt>
      <trkpt lat="45.13012" lon="5.73403">
        <ele>453.79998779297</ele>
        <time>2012-06-13T16:50:50.000Z</time>
      </trkpt>
      <trkpt lat="45.1301" lon="5.73403">
        <ele>450.79998779297</ele>
        <time>2012-06-13T16:50:55.000Z</time>
      </trkpt>
      <trkpt lat="45.13004" lon="5.73402">
        <ele>448.39999389648</ele>
        <time>2012-06-13T16:51:01.000Z</time>
      </trkpt>
      <trkpt lat="45.13003" lon="5.73399">
        <ele>447.60000610352</ele>
        <time>2012-06-13T16:51:03.000Z</time>
      </trkpt>
      <trkpt lat="45.13004" lon="5.73394">
        <ele>445.60000610352</ele>
        <time>2012-06-13T16:51:06.000Z</time>
      </trkpt>
      <trkpt lat="45.13003" lon="5.73387">
        <ele>443.20001220703</ele>
        <time>2012-06-13T16:51:12.000Z</time>
      </trkpt>
      <trkpt lat="45.13004" lon="5.73385">
        <ele>442.79998779297</ele>
        <time>2012-06-13T16:51:13.000Z</time>
      </trkpt>
      <trkpt lat="45.13004" lon="5.73381">
        <ele>445.60000610352</ele>
        <time>2012-06-13T16:51:19.000Z</time>
      </trkpt>
      <trkpt lat="45.12998" lon="5.73373">
        <ele>454.79998779297</ele>
        <time>2012-06-13T16:51:37.000Z</time>
      </trkpt>
      <trkpt lat="45.12995" lon="5.73365">
        <ele>453.20001220703</ele>
        <time>2012-06-13T16:51:42.000Z</time>
      </trkpt>
      <trkpt lat="45.12995" lon="5.73363">
        <ele>452.39999389648</ele>
        <time>2012-06-13T16:51:43.000Z</time>
      </trkpt>
      <trkpt lat="45.12992" lon="5.73344">
        <ele>450</ele>
        <time>2012-06-13T16:51:49.000Z</time>
      </trkpt>
      <trkpt lat="45.12987" lon="5.73321">
        <ele>446</ele>
        <time>2012-06-13T16:51:55.000Z</time>
      </trkpt>
      <trkpt lat="45.12987" lon="5.73306">
        <ele>442.79998779297</ele>
        <time>2012-06-13T16:52:00.000Z</time>
      </trkpt>
      <trkpt lat="45.12986" lon="5.73301">
        <ele>442.79998779297</ele>
        <time>2012-06-13T16:52:05.000Z</time>
      </trkpt>
      <trkpt lat="45.12987" lon="5.73295">
        <ele>443.20001220703</ele>
        <time>2012-06-13T16:52:10.000Z</time>
      </trkpt>
      <trkpt lat="45.12989" lon="5.73292">
        <ele>445.60000610352</ele>
        <time>2012-06-13T16:52:17.000Z</time>
      </trkpt>
      <trkpt lat="45.1299" lon="5.7329">
        <ele>446.60000610352</ele>
        <time>2012-06-13T16:52:21.000Z</time>
      </trkpt>
      <trkpt lat="45.12997" lon="5.73285">
        <ele>446.60000610352</ele>
        <time>2012-06-13T16:52:25.000Z</time>
      </trkpt>
      <trkpt lat="45.12998" lon="5.73284">
        <ele>447</ele>
        <time>2012-06-13T16:52:26.000Z</time>
      </trkpt>
      <trkpt lat="45.13003" lon="5.73274">
        <ele>447</ele>
        <time>2012-06-13T16:52:30.000Z</time>
      </trkpt>
      <trkpt lat="45.13005" lon="5.73266">
        <ele>448.39999389648</ele>
        <time>2012-06-13T16:52:33.000Z</time>
      </trkpt>
      <trkpt lat="45.13005" lon="5.7326">
        <ele>446.60000610352</ele>
        <time>2012-06-13T16:52:37.000Z</time>
      </trkpt>
      <trkpt lat="45.13001" lon="5.73246">
        <ele>444.60000610352</ele>
        <time>2012-06-13T16:52:43.000Z</time>
      </trkpt>
      <trkpt lat="45.12996" lon="5.73243">
        <ele>443.60000610352</ele>
        <time>2012-06-13T16:52:46.000Z</time>
      </trkpt>
      <trkpt lat="45.1299" lon="5.73226">
        <ele>441.79998779297</ele>
        <time>2012-06-13T16:52:52.000Z</time>
      </trkpt>
      <trkpt lat="45.12984" lon="5.73214">
        <ele>440.39999389648</ele>
        <time>2012-06-13T16:52:57.000Z</time>
      </trkpt>
      <trkpt lat="45.1298" lon="5.73206">
        <ele>440.79998779297</ele>
        <time>2012-06-13T16:53:00.000Z</time>
      </trkpt>
      <trkpt lat="45.12974" lon="5.73194">
        <ele>439.79998779297</ele>
        <time>2012-06-13T16:53:05.000Z</time>
      </trkpt>
      <trkpt lat="45.12972" lon="5.73191">
        <ele>440.79998779297</ele>
        <time>2012-06-13T16:53:07.000Z</time>
      </trkpt>
      <trkpt lat="45.12974" lon="5.73182">
        <ele>439.39999389648</ele>
        <time>2012-06-13T16:53:12.000Z</time>
      </trkpt>
      <trkpt lat="45.12975" lon="5.73176">
        <ele>440.39999389648</ele>
        <time>2012-06-13T16:53:16.000Z</time>
      </trkpt>
      <trkpt lat="45.1298" lon="5.73162">
        <ele>441.20001220703</ele>
        <time>2012-06-13T16:53:24.000Z</time>
      </trkpt>
      <trkpt lat="45.12981" lon="5.73155">
        <ele>442.20001220703</ele>
        <time>2012-06-13T16:53:30.000Z</time>
      </trkpt>
      <trkpt lat="45.12987" lon="5.73149">
        <ele>438.79998779297</ele>
        <time>2012-06-13T16:53:42.000Z</time>
      </trkpt>
      <trkpt lat="45.12987" lon="5.73143">
        <ele>439.79998779297</ele>
        <time>2012-06-13T16:53:48.000Z</time>
      </trkpt>
      <trkpt lat="45.12989" lon="5.73138">
        <ele>439.39999389648</ele>
        <time>2012-06-13T16:53:51.000Z</time>
      </trkpt>
      <trkpt lat="45.1299" lon="5.73133">
        <ele>440.79998779297</ele>
        <time>2012-06-13T16:53:54.000Z</time>
      </trkpt>
      <trkpt lat="45.12991" lon="5.73132">
        <ele>442.20001220703</ele>
        <time>2012-06-13T16:53:56.000Z</time>
      </trkpt>
      <trkpt lat="45.12991" lon="5.73129">
        <ele>444.20001220703</ele>
        <time>2012-06-13T16:53:58.000Z</time>
      </trkpt>
      <trkpt lat="45.12991" lon="5.73122">
        <ele>450.79998779297</ele>
        <time>2012-06-13T16:54:05.000Z</time>
      </trkpt>
      <trkpt lat="45.12993" lon="5.73117">
        <ele>451.79998779297</ele>
        <time>2012-06-13T16:54:10.000Z</time>
      </trkpt>
      <trkpt lat="45.12998" lon="5.73107">
        <ele>452.39999389648</ele>
        <time>2012-06-13T16:54:14.000Z</time>
      </trkpt>
      <trkpt lat="45.12999" lon="5.73105">
        <ele>451.79998779297</ele>
        <time>2012-06-13T16:54:15.000Z</time>
      </trkpt>
      <trkpt lat="45.13003" lon="5.731">
        <ele>450.79998779297</ele>
        <time>2012-06-13T16:54:19.000Z</time>
      </trkpt>
      <trkpt lat="45.13006" lon="5.73096">
        <ele>450</ele>
        <time>2012-06-13T16:54:23.000Z</time>
      </trkpt>
      <trkpt lat="45.13011" lon="5.73096">
        <ele>451.39999389648</ele>
        <time>2012-06-13T16:54:30.000Z</time>
      </trkpt>
      <trkpt lat="45.13019" lon="5.73104">
        <ele>444.60000610352</ele>
        <time>2012-06-13T16:54:46.000Z</time>
      </trkpt>
      <trkpt lat="45.1302" lon="5.7311">
        <ele>443.60000610352</ele>
        <time>2012-06-13T16:54:49.000Z</time>
      </trkpt>
      <trkpt lat="45.1302" lon="5.73117">
        <ele>444.60000610352</ele>
        <time>2012-06-13T16:54:53.000Z</time>
      </trkpt>
      <trkpt lat="45.13022" lon="5.73124">
        <ele>446</ele>
        <time>2012-06-13T16:54:58.000Z</time>
      </trkpt>
      <trkpt lat="45.13023" lon="5.73134">
        <ele>446.60000610352</ele>
        <time>2012-06-13T16:55:05.000Z</time>
      </trkpt>
      <trkpt lat="45.13021" lon="5.73137">
        <ele>447</ele>
        <time>2012-06-13T16:55:08.000Z</time>
      </trkpt>
      <trkpt lat="45.13016" lon="5.73146">
        <ele>449</ele>
        <time>2012-06-13T16:55:29.000Z</time>
      </trkpt>
      <trkpt lat="45.13013" lon="5.73146">
        <ele>450.79998779297</ele>
        <time>2012-06-13T16:55:37.000Z</time>
      </trkpt>
      <trkpt lat="45.1301" lon="5.73141">
        <ele>447.60000610352</ele>
        <time>2012-06-13T16:55:45.000Z</time>
      </trkpt>
      <trkpt lat="45.13011" lon="5.73139">
        <ele>447.60000610352</ele>
        <time>2012-06-13T16:55:46.000Z</time>
      </trkpt>
      <trkpt lat="45.13006" lon="5.73134">
        <ele>450</ele>
        <time>2012-06-13T16:55:50.000Z</time>
      </trkpt>
      <trkpt lat="45.13004" lon="5.73131">
        <ele>447</ele>
        <time>2012-06-13T16:55:56.000Z</time>
      </trkpt>
      <trkpt lat="45.13005" lon="5.73124">
        <ele>443.60000610352</ele>
        <time>2012-06-13T16:56:00.000Z</time>
      </trkpt>
      <trkpt lat="45.13009" lon="5.73111">
        <ele>443.20001220703</ele>
        <time>2012-06-13T16:56:06.000Z</time>
      </trkpt>
      <trkpt lat="45.13015" lon="5.73095">
        <ele>445.60000610352</ele>
        <time>2012-06-13T16:56:13.000Z</time>
      </trkpt>
      <trkpt lat="45.13023" lon="5.73081">
        <ele>450.79998779297</ele>
        <time>2012-06-13T16:56:18.000Z</time>
      </trkpt>
      <trkpt lat="45.13025" lon="5.73073">
        <ele>456.60000610352</ele>
        <time>2012-06-13T16:56:22.000Z</time>
      </trkpt>
      <trkpt lat="45.13028" lon="5.73063">
        <ele>458.60000610352</ele>
        <time>2012-06-13T16:56:26.000Z</time>
      </trkpt>
      <trkpt lat="45.13034" lon="5.73057">
        <ele>459.60000610352</ele>
        <time>2012-06-13T16:56:30.000Z</time>
      </trkpt>
      <trkpt lat="45.13042" lon="5.73051">
        <ele>461</ele>
        <time>2012-06-13T16:56:35.000Z</time>
      </trkpt>
      <trkpt lat="45.13048" lon="5.73042">
        <ele>463</ele>
        <time>2012-06-13T16:56:39.000Z</time>
      </trkpt>
      <trkpt lat="45.13057" lon="5.73029">
        <ele>464.79998779297</ele>
        <time>2012-06-13T16:56:44.000Z</time>
      </trkpt>
      <trkpt lat="45.1307" lon="5.73014">
        <ele>463</ele>
        <time>2012-06-13T16:56:50.000Z</time>
      </trkpt>
      <trkpt lat="45.13081" lon="5.73002">
        <ele>462.39999389648</ele>
        <time>2012-06-13T16:56:55.000Z</time>
      </trkpt>
      <trkpt lat="45.13084" lon="5.73">
        <ele>462.39999389648</ele>
        <time>2012-06-13T16:56:56.000Z</time>
      </trkpt>
      <trkpt lat="45.1309" lon="5.72995">
        <ele>465.39999389648</ele>
        <time>2012-06-13T16:57:00.000Z</time>
      </trkpt>
      <trkpt lat="45.13091" lon="5.72993">
        <ele>465.79998779297</ele>
        <time>2012-06-13T16:57:01.000Z</time>
      </trkpt>
      <trkpt lat="45.13097" lon="5.72988">
        <ele>463.39999389648</ele>
        <time>2012-06-13T16:57:06.000Z</time>
      </trkpt>
      <trkpt lat="45.13109" lon="5.7298">
        <ele>459</ele>
        <time>2012-06-13T16:57:11.000Z</time>
      </trkpt>
      <trkpt lat="45.13118" lon="5.72979">
        <ele>455.20001220703</ele>
        <time>2012-06-13T16:57:15.000Z</time>
      </trkpt>
      <trkpt lat="45.13125" lon="5.72971">
        <ele>452.39999389648</ele>
        <time>2012-06-13T16:57:20.000Z</time>
      </trkpt>
      <trkpt lat="45.13132" lon="5.72966">
        <ele>450</ele>
        <time>2012-06-13T16:57:24.000Z</time>
      </trkpt>
      <trkpt lat="45.13146" lon="5.72955">
        <ele>448</ele>
        <time>2012-06-13T16:57:30.000Z</time>
      </trkpt>
      <trkpt lat="45.13156" lon="5.72947">
        <ele>448</ele>
        <time>2012-06-13T16:57:35.000Z</time>
      </trkpt>
      <trkpt lat="45.1317" lon="5.72939">
        <ele>445.20001220703</ele>
        <time>2012-06-13T16:57:40.000Z</time>
      </trkpt>
      <trkpt lat="45.13172" lon="5.72937">
        <ele>445.20001220703</ele>
        <time>2012-06-13T16:57:41.000Z</time>
      </trkpt>
      <trkpt lat="45.13185" lon="5.7293">
        <ele>442.79998779297</ele>
        <time>2012-06-13T16:57:46.000Z</time>
      </trkpt>
      <trkpt lat="45.13192" lon="5.72924">
        <ele>442.20001220703</ele>
        <time>2012-06-13T16:57:49.000Z</time>
      </trkpt>
      <trkpt lat="45.13197" lon="5.72921">
        <ele>442.79998779297</ele>
        <time>2012-06-13T16:57:53.000Z</time>
      </trkpt>
      <trkpt lat="45.132" lon="5.72933">
        <ele>440.79998779297</ele>
        <time>2012-06-13T16:57:58.000Z</time>
      </trkpt>
      <trkpt lat="45.13208" lon="5.7294">
        <ele>440.39999389648</ele>
        <time>2012-06-13T16:58:01.000Z</time>
      </trkpt>
      <trkpt lat="45.13218" lon="5.72943">
        <ele>440.39999389648</ele>
        <time>2012-06-13T16:58:05.000Z</time>
      </trkpt>
      <trkpt lat="45.13228" lon="5.72948">
        <ele>438.39999389648</ele>
        <time>2012-06-13T16:58:10.000Z</time>
      </trkpt>
      <trkpt lat="45.13233" lon="5.72951">
        <ele>437.39999389648</ele>
        <time>2012-06-13T16:58:14.000Z</time>
      </trkpt>
      <trkpt lat="45.13237" lon="5.72949">
        <ele>438.79998779297</ele>
        <time>2012-06-13T16:58:18.000Z</time>
      </trkpt>
      <trkpt lat="45.13246" lon="5.72943">
        <ele>438</ele>
        <time>2012-06-13T16:58:23.000Z</time>
      </trkpt>
      <trkpt lat="45.13253" lon="5.72945">
        <ele>436.39999389648</ele>
        <time>2012-06-13T16:58:27.000Z</time>
      </trkpt>
      <trkpt lat="45.13261" lon="5.72945">
        <ele>435.60000610352</ele>
        <time>2012-06-13T16:58:31.000Z</time>
      </trkpt>
      <trkpt lat="45.13264" lon="5.72944">
        <ele>436.39999389648</ele>
        <time>2012-06-13T16:58:33.000Z</time>
      </trkpt>
      <trkpt lat="45.13275" lon="5.72945">
        <ele>437.39999389648</ele>
        <time>2012-06-13T16:58:39.000Z</time>
      </trkpt>
      <trkpt lat="45.13277" lon="5.72945">
        <ele>437.39999389648</ele>
        <time>2012-06-13T16:58:40.000Z</time>
      </trkpt>
      <trkpt lat="45.13285" lon="5.72944">
        <ele>439.39999389648</ele>
        <time>2012-06-13T16:58:43.000Z</time>
      </trkpt>
      <trkpt lat="45.13298" lon="5.72945">
        <ele>439.79998779297</ele>
        <time>2012-06-13T16:58:49.000Z</time>
      </trkpt>
      <trkpt lat="45.13311" lon="5.72943">
        <ele>441.79998779297</ele>
        <time>2012-06-13T16:58:55.000Z</time>
      </trkpt>
      <trkpt lat="45.1332" lon="5.72932">
        <ele>442.20001220703</ele>
        <time>2012-06-13T16:59:00.000Z</time>
      </trkpt>
      <trkpt lat="45.13327" lon="5.72931">
        <ele>438.39999389648</ele>
        <time>2012-06-13T16:59:04.000Z</time>
      </trkpt>
      <trkpt lat="45.13333" lon="5.72924">
        <ele>436.39999389648</ele>
        <time>2012-06-13T16:59:09.000Z</time>
      </trkpt>
      <trkpt lat="45.13337" lon="5.72914">
        <ele>435</ele>
        <time>2012-06-13T16:59:13.000Z</time>
      </trkpt>
      <trkpt lat="45.13338" lon="5.72913">
        <ele>434</ele>
        <time>2012-06-13T16:59:14.000Z</time>
      </trkpt>
      <trkpt lat="45.13343" lon="5.72911">
        <ele>429.79998779297</ele>
        <time>2012-06-13T16:59:18.000Z</time>
      </trkpt>
      <trkpt lat="45.13355" lon="5.72908">
        <ele>425.39999389648</ele>
        <time>2012-06-13T16:59:24.000Z</time>
      </trkpt>
      <trkpt lat="45.13364" lon="5.729">
        <ele>424</ele>
        <time>2012-06-13T16:59:28.000Z</time>
      </trkpt>
      <trkpt lat="45.13374" lon="5.72894">
        <ele>422</ele>
        <time>2012-06-13T16:59:34.000Z</time>
      </trkpt>
      <trkpt lat="45.13376" lon="5.72893">
        <ele>422</ele>
        <time>2012-06-13T16:59:35.000Z</time>
      </trkpt>
      <trkpt lat="45.13384" lon="5.7289">
        <ele>423.39999389648</ele>
        <time>2012-06-13T16:59:40.000Z</time>
      </trkpt>
      <trkpt lat="45.13388" lon="5.72884">
        <ele>424.39999389648</ele>
        <time>2012-06-13T16:59:43.000Z</time>
      </trkpt>
      <trkpt lat="45.13393" lon="5.72877">
        <ele>421.60000610352</ele>
        <time>2012-06-13T16:59:47.000Z</time>
      </trkpt>
      <trkpt lat="45.13399" lon="5.72866">
        <ele>418.20001220703</ele>
        <time>2012-06-13T16:59:53.000Z</time>
      </trkpt>
      <trkpt lat="45.13403" lon="5.72861">
        <ele>420.20001220703</ele>
        <time>2012-06-13T16:59:58.000Z</time>
      </trkpt>
      <trkpt lat="45.13403" lon="5.7286">
        <ele>420.60000610352</ele>
        <time>2012-06-13T16:59:59.000Z</time>
      </trkpt>
      <trkpt lat="45.13401" lon="5.72854">
        <ele>418.20001220703</ele>
        <time>2012-06-13T17:00:04.000Z</time>
      </trkpt>
      <trkpt lat="45.13401" lon="5.72852">
        <ele>417.79998779297</ele>
        <time>2012-06-13T17:00:05.000Z</time>
      </trkpt>
      <trkpt lat="45.13399" lon="5.72847">
        <ele>416.20001220703</ele>
        <time>2012-06-13T17:00:08.000Z</time>
      </trkpt>
      <trkpt lat="45.13398" lon="5.72838">
        <ele>418.60000610352</ele>
        <time>2012-06-13T17:00:12.000Z</time>
      </trkpt>
      <trkpt lat="45.13398" lon="5.72833">
        <ele>423.39999389648</ele>
        <time>2012-06-13T17:00:18.000Z</time>
      </trkpt>
      <trkpt lat="45.13395" lon="5.72831">
        <ele>424</ele>
        <time>2012-06-13T17:00:22.000Z</time>
      </trkpt>
      <trkpt lat="45.13391" lon="5.72827">
        <ele>418.60000610352</ele>
        <time>2012-06-13T17:00:28.000Z</time>
      </trkpt>
      <trkpt lat="45.13388" lon="5.72823">
        <ele>414.39999389648</ele>
        <time>2012-06-13T17:00:35.000Z</time>
      </trkpt>
      <trkpt lat="45.13395" lon="5.72837">
        <ele>417.20001220703</ele>
        <time>2012-06-13T17:00:42.000Z</time>
      </trkpt>
      <trkpt lat="45.13393" lon="5.72829">
        <ele>424.39999389648</ele>
        <time>2012-06-13T17:00:50.000Z</time>
      </trkpt>
      <trkpt lat="45.13387" lon="5.72821">
        <ele>419.60000610352</ele>
        <time>2012-06-13T17:00:57.000Z</time>
      </trkpt>
      <trkpt lat="45.13388" lon="5.72815">
        <ele>422</ele>
        <time>2012-06-13T17:01:04.000Z</time>
      </trkpt>
      <trkpt lat="45.13388" lon="5.7281">
        <ele>427.39999389648</ele>
        <time>2012-06-13T17:01:14.000Z</time>
      </trkpt>
      <trkpt lat="45.13389" lon="5.72805">
        <ele>427.39999389648</ele>
        <time>2012-06-13T17:01:18.000Z</time>
      </trkpt>
      <trkpt lat="45.13388" lon="5.72802">
        <ele>426.79998779297</ele>
        <time>2012-06-13T17:01:19.000Z</time>
      </trkpt>
      <trkpt lat="45.13385" lon="5.72794">
        <ele>427.39999389648</ele>
        <time>2012-06-13T17:01:26.000Z</time>
      </trkpt>
      <trkpt lat="45.13382" lon="5.72789">
        <ele>425.39999389648</ele>
        <time>2012-06-13T17:01:33.000Z</time>
      </trkpt>
      <trkpt lat="45.13383" lon="5.72785">
        <ele>423</ele>
        <time>2012-06-13T17:01:35.000Z</time>
      </trkpt>
      <trkpt lat="45.13391" lon="5.72774">
        <ele>420.60000610352</ele>
        <time>2012-06-13T17:01:41.000Z</time>
      </trkpt>
      <trkpt lat="45.13392" lon="5.72772">
        <ele>420.60000610352</ele>
        <time>2012-06-13T17:01:42.000Z</time>
      </trkpt>
      <trkpt lat="45.13395" lon="5.72766">
        <ele>423.39999389648</ele>
        <time>2012-06-13T17:01:46.000Z</time>
      </trkpt>
      <trkpt lat="45.13396" lon="5.72754">
        <ele>424</ele>
        <time>2012-06-13T17:01:51.000Z</time>
      </trkpt>
      <trkpt lat="45.13399" lon="5.72749">
        <ele>423</ele>
        <time>2012-06-13T17:01:54.000Z</time>
      </trkpt>
      <trkpt lat="45.13401" lon="5.72741">
        <ele>423</ele>
        <time>2012-06-13T17:01:59.000Z</time>
      </trkpt>
      <trkpt lat="45.13406" lon="5.72734">
        <ele>423</ele>
        <time>2012-06-13T17:02:04.000Z</time>
      </trkpt>
      <trkpt lat="45.13408" lon="5.72724">
        <ele>421</ele>
        <time>2012-06-13T17:02:09.000Z</time>
      </trkpt>
      <trkpt lat="45.13408" lon="5.72722">
        <ele>420.20001220703</ele>
        <time>2012-06-13T17:02:10.000Z</time>
      </trkpt>
      <trkpt lat="45.13412" lon="5.72716">
        <ele>417.79998779297</ele>
        <time>2012-06-13T17:02:14.000Z</time>
      </trkpt>
      <trkpt lat="45.1341" lon="5.72712">
        <ele>413</ele>
        <time>2012-06-13T17:02:22.000Z</time>
      </trkpt>
      <trkpt lat="45.13414" lon="5.7271">
        <ele>405.79998779297</ele>
        <time>2012-06-13T17:02:29.000Z</time>
      </trkpt>
      <trkpt lat="45.13415" lon="5.72708">
        <ele>401.79998779297</ele>
        <time>2012-06-13T17:02:39.000Z</time>
      </trkpt>
      <trkpt lat="45.13416" lon="5.72705">
        <ele>400</ele>
        <time>2012-06-13T17:02:46.000Z</time>
      </trkpt>
      <trkpt lat="45.13415" lon="5.72721">
        <ele>412</ele>
        <time>2012-06-13T17:03:22.000Z</time>
      </trkpt>
      <trkpt lat="45.13413" lon="5.72729">
        <ele>416.79998779297</ele>
        <time>2012-06-13T17:03:29.000Z</time>
      </trkpt>
      <trkpt lat="45.13408" lon="5.72738">
        <ele>417.20001220703</ele>
        <time>2012-06-13T17:03:35.000Z</time>
      </trkpt>
      <trkpt lat="45.13404" lon="5.72746">
        <ele>417.79998779297</ele>
        <time>2012-06-13T17:03:43.000Z</time>
      </trkpt>
      <trkpt lat="45.13398" lon="5.72754">
        <ele>420.20001220703</ele>
        <time>2012-06-13T17:03:50.000Z</time>
      </trkpt>
      <trkpt lat="45.13396" lon="5.72758">
        <ele>421.60000610352</ele>
        <time>2012-06-13T17:03:54.000Z</time>
      </trkpt>
      <trkpt lat="45.13395" lon="5.72768">
        <ele>421</ele>
        <time>2012-06-13T17:04:00.000Z</time>
      </trkpt>
      <trkpt lat="45.13395" lon="5.72779">
        <ele>422</ele>
        <time>2012-06-13T17:04:06.000Z</time>
      </trkpt>
      <trkpt lat="45.13395" lon="5.72781">
        <ele>422.60000610352</ele>
        <time>2012-06-13T17:04:07.000Z</time>
      </trkpt>
      <trkpt lat="45.1339" lon="5.72786">
        <ele>422</ele>
        <time>2012-06-13T17:04:13.000Z</time>
      </trkpt>
      <trkpt lat="45.13389" lon="5.72787">
        <ele>421</ele>
        <time>2012-06-13T17:04:14.000Z</time>
      </trkpt>
      <trkpt lat="45.13392" lon="5.72791">
        <ele>421</ele>
        <time>2012-06-13T17:04:18.000Z</time>
      </trkpt>
      <trkpt lat="45.13393" lon="5.72793">
        <ele>421</ele>
        <time>2012-06-13T17:04:20.000Z</time>
      </trkpt>
      <trkpt lat="45.13395" lon="5.72803">
        <ele>424.39999389648</ele>
        <time>2012-06-13T17:04:26.000Z</time>
      </trkpt>
      <trkpt lat="45.13397" lon="5.72812">
        <ele>427.39999389648</ele>
        <time>2012-06-13T17:04:31.000Z</time>
      </trkpt>
      <trkpt lat="45.13398" lon="5.72818">
        <ele>427.39999389648</ele>
        <time>2012-06-13T17:04:35.000Z</time>
      </trkpt>
      <trkpt lat="45.13395" lon="5.72827">
        <ele>426</ele>
        <time>2012-06-13T17:04:40.000Z</time>
      </trkpt>
      <trkpt lat="45.13398" lon="5.72837">
        <ele>426</ele>
        <time>2012-06-13T17:04:46.000Z</time>
      </trkpt>
      <trkpt lat="45.134" lon="5.72849">
        <ele>424.39999389648</ele>
        <time>2012-06-13T17:04:51.000Z</time>
      </trkpt>
      <trkpt lat="45.13403" lon="5.72861">
        <ele>425.39999389648</ele>
        <time>2012-06-13T17:04:55.000Z</time>
      </trkpt>
      <trkpt lat="45.13403" lon="5.72865">
        <ele>425.39999389648</ele>
        <time>2012-06-13T17:04:57.000Z</time>
      </trkpt>
      <trkpt lat="45.13397" lon="5.72878">
        <ele>424</ele>
        <time>2012-06-13T17:05:05.000Z</time>
      </trkpt>
      <trkpt lat="45.13393" lon="5.7288">
        <ele>422</ele>
        <time>2012-06-13T17:05:08.000Z</time>
      </trkpt>
      <trkpt lat="45.13389" lon="5.7289">
        <ele>423</ele>
        <time>2012-06-13T17:05:14.000Z</time>
      </trkpt>
      <trkpt lat="45.13386" lon="5.72892">
        <ele>423</ele>
        <time>2012-06-13T17:05:17.000Z</time>
      </trkpt>
      <trkpt lat="45.13384" lon="5.72897">
        <ele>424.39999389648</ele>
        <time>2012-06-13T17:05:20.000Z</time>
      </trkpt>
      <trkpt lat="45.13378" lon="5.72902">
        <ele>424</ele>
        <time>2012-06-13T17:05:26.000Z</time>
      </trkpt>
      <trkpt lat="45.1337" lon="5.72913">
        <ele>426.39999389648</ele>
        <time>2012-06-13T17:05:33.000Z</time>
      </trkpt>
      <trkpt lat="45.13364" lon="5.72917">
        <ele>425</ele>
        <time>2012-06-13T17:05:38.000Z</time>
      </trkpt>
      <trkpt lat="45.1336" lon="5.72917">
        <ele>427.79998779297</ele>
        <time>2012-06-13T17:05:44.000Z</time>
      </trkpt>
      <trkpt lat="45.13355" lon="5.72917">
        <ele>429.20001220703</ele>
        <time>2012-06-13T17:05:50.000Z</time>
      </trkpt>
      <trkpt lat="45.13351" lon="5.72918">
        <ele>429.20001220703</ele>
        <time>2012-06-13T17:05:53.000Z</time>
      </trkpt>
      <trkpt lat="45.13344" lon="5.72926">
        <ele>430.20001220703</ele>
        <time>2012-06-13T17:05:59.000Z</time>
      </trkpt>
      <trkpt lat="45.13341" lon="5.72935">
        <ele>431.20001220703</ele>
        <time>2012-06-13T17:06:05.000Z</time>
      </trkpt>
      <trkpt lat="45.13338" lon="5.7294">
        <ele>432.20001220703</ele>
        <time>2012-06-13T17:06:09.000Z</time>
      </trkpt>
      <trkpt lat="45.13328" lon="5.72942">
        <ele>433.20001220703</ele>
        <time>2012-06-13T17:06:19.000Z</time>
      </trkpt>
      <trkpt lat="45.13325" lon="5.72944">
        <ele>433.20001220703</ele>
        <time>2012-06-13T17:06:22.000Z</time>
      </trkpt>
      <trkpt lat="45.13319" lon="5.72949">
        <ele>432.60000610352</ele>
        <time>2012-06-13T17:06:28.000Z</time>
      </trkpt>
      <trkpt lat="45.1331" lon="5.72951">
        <ele>433.20001220703</ele>
        <time>2012-06-13T17:06:35.000Z</time>
      </trkpt>
      <trkpt lat="45.13309" lon="5.72951">
        <ele>433.60000610352</ele>
        <time>2012-06-13T17:06:36.000Z</time>
      </trkpt>
      <trkpt lat="45.13306" lon="5.72952">
        <ele>434.60000610352</ele>
        <time>2012-06-13T17:06:40.000Z</time>
      </trkpt>
      <trkpt lat="45.13302" lon="5.7295">
        <ele>435.60000610352</ele>
        <time>2012-06-13T17:06:45.000Z</time>
      </trkpt>
      <trkpt lat="45.13295" lon="5.72952">
        <ele>437</ele>
        <time>2012-06-13T17:06:52.000Z</time>
      </trkpt>
      <trkpt lat="45.13285" lon="5.72953">
        <ele>439.39999389648</ele>
        <time>2012-06-13T17:06:59.000Z</time>
      </trkpt>
      <trkpt lat="45.13274" lon="5.72953">
        <ele>442.79998779297</ele>
        <time>2012-06-13T17:07:08.000Z</time>
      </trkpt>
      <trkpt lat="45.1327" lon="5.72954">
        <ele>441.79998779297</ele>
        <time>2012-06-13T17:07:12.000Z</time>
      </trkpt>
      <trkpt lat="45.13266" lon="5.72952">
        <ele>441.79998779297</ele>
        <time>2012-06-13T17:07:16.000Z</time>
      </trkpt>
      <trkpt lat="45.13262" lon="5.72952">
        <ele>441.20001220703</ele>
        <time>2012-06-13T17:07:19.000Z</time>
      </trkpt>
      <trkpt lat="45.13253" lon="5.7295">
        <ele>441.79998779297</ele>
        <time>2012-06-13T17:07:25.000Z</time>
      </trkpt>
      <trkpt lat="45.1325" lon="5.72948">
        <ele>439.79998779297</ele>
        <time>2012-06-13T17:07:28.000Z</time>
      </trkpt>
      <trkpt lat="45.13248" lon="5.72948">
        <ele>440.39999389648</ele>
        <time>2012-06-13T17:07:30.000Z</time>
      </trkpt>
      <trkpt lat="45.13241" lon="5.72953">
        <ele>439.79998779297</ele>
        <time>2012-06-13T17:07:36.000Z</time>
      </trkpt>
      <trkpt lat="45.1324" lon="5.72955">
        <ele>440.79998779297</ele>
        <time>2012-06-13T17:07:38.000Z</time>
      </trkpt>
      <trkpt lat="45.13236" lon="5.72961">
        <ele>441.79998779297</ele>
        <time>2012-06-13T17:07:43.000Z</time>
      </trkpt>
      <trkpt lat="45.13231" lon="5.7296">
        <ele>443.20001220703</ele>
        <time>2012-06-13T17:07:47.000Z</time>
      </trkpt>
      <trkpt lat="45.13229" lon="5.72958">
        <ele>444.20001220703</ele>
        <time>2012-06-13T17:07:49.000Z</time>
      </trkpt>
      <trkpt lat="45.13221" lon="5.72956">
        <ele>445.60000610352</ele>
        <time>2012-06-13T17:07:55.000Z</time>
      </trkpt>
      <trkpt lat="45.1321" lon="5.72953">
        <ele>450</ele>
        <time>2012-06-13T17:08:01.000Z</time>
      </trkpt>
      <trkpt lat="45.13203" lon="5.72951">
        <ele>450.39999389648</ele>
        <time>2012-06-13T17:08:06.000Z</time>
      </trkpt>
      <trkpt lat="45.13198" lon="5.72941">
        <ele>451.79998779297</ele>
        <time>2012-06-13T17:08:12.000Z</time>
      </trkpt>
      <trkpt lat="45.13196" lon="5.72935">
        <ele>452.79998779297</ele>
        <time>2012-06-13T17:08:15.000Z</time>
      </trkpt>
      <trkpt lat="45.13202" lon="5.72924">
        <ele>451.79998779297</ele>
        <time>2012-06-13T17:08:21.000Z</time>
      </trkpt>
      <trkpt lat="45.13208" lon="5.72916">
        <ele>451.79998779297</ele>
        <time>2012-06-13T17:08:25.000Z</time>
      </trkpt>
      <trkpt lat="45.13216" lon="5.7291">
        <ele>450</ele>
        <time>2012-06-13T17:08:28.000Z</time>
      </trkpt>
      <trkpt lat="45.13226" lon="5.72898">
        <ele>450</ele>
        <time>2012-06-13T17:08:34.000Z</time>
      </trkpt>
      <trkpt lat="45.13225" lon="5.72897">
        <ele>449</ele>
        <time>2012-06-13T17:08:35.000Z</time>
      </trkpt>
      <trkpt lat="45.13217" lon="5.72885">
        <ele>447</ele>
        <time>2012-06-13T17:08:42.000Z</time>
      </trkpt>
      <trkpt lat="45.13214" lon="5.7288">
        <ele>448</ele>
        <time>2012-06-13T17:08:44.000Z</time>
      </trkpt>
      <trkpt lat="45.13212" lon="5.72874">
        <ele>449</ele>
        <time>2012-06-13T17:08:46.000Z</time>
      </trkpt>
      <trkpt lat="45.13208" lon="5.72863">
        <ele>450.39999389648</ele>
        <time>2012-06-13T17:08:52.000Z</time>
      </trkpt>
      <trkpt lat="45.13205" lon="5.72851">
        <ele>452.39999389648</ele>
        <time>2012-06-13T17:08:58.000Z</time>
      </trkpt>
      <trkpt lat="45.13204" lon="5.72849">
        <ele>450.79998779297</ele>
        <time>2012-06-13T17:09:00.000Z</time>
      </trkpt>
      <trkpt lat="45.13199" lon="5.72838">
        <ele>450.39999389648</ele>
        <time>2012-06-13T17:09:06.000Z</time>
      </trkpt>
      <trkpt lat="45.13197" lon="5.72834">
        <ele>449.39999389648</ele>
        <time>2012-06-13T17:09:08.000Z</time>
      </trkpt>
      <trkpt lat="45.13194" lon="5.72824">
        <ele>450.39999389648</ele>
        <time>2012-06-13T17:09:13.000Z</time>
      </trkpt>
      <trkpt lat="45.13188" lon="5.72811">
        <ele>452.39999389648</ele>
        <time>2012-06-13T17:09:19.000Z</time>
      </trkpt>
      <trkpt lat="45.13183" lon="5.72796">
        <ele>453.79998779297</ele>
        <time>2012-06-13T17:09:24.000Z</time>
      </trkpt>
      <trkpt lat="45.1318" lon="5.72784">
        <ele>455.20001220703</ele>
        <time>2012-06-13T17:09:29.000Z</time>
      </trkpt>
      <trkpt lat="45.13175" lon="5.72771">
        <ele>457.60000610352</ele>
        <time>2012-06-13T17:09:33.000Z</time>
      </trkpt>
      <trkpt lat="45.13169" lon="5.72767">
        <ele>456.20001220703</ele>
        <time>2012-06-13T17:09:37.000Z</time>
      </trkpt>
      <trkpt lat="45.13169" lon="5.72773">
        <ele>451.79998779297</ele>
        <time>2012-06-13T17:09:41.000Z</time>
      </trkpt>
      <trkpt lat="45.13169" lon="5.72781">
        <ele>449</ele>
        <time>2012-06-13T17:09:44.000Z</time>
      </trkpt>
      <trkpt lat="45.13166" lon="5.72796">
        <ele>445.60000610352</ele>
        <time>2012-06-13T17:09:49.000Z</time>
      </trkpt>
      <trkpt lat="45.13162" lon="5.72807">
        <ele>442.20001220703</ele>
        <time>2012-06-13T17:09:54.000Z</time>
      </trkpt>
      <trkpt lat="45.13162" lon="5.72811">
        <ele>440.79998779297</ele>
        <time>2012-06-13T17:09:59.000Z</time>
      </trkpt>
      <trkpt lat="45.13161" lon="5.72812">
        <ele>440.79998779297</ele>
        <time>2012-06-13T17:10:00.000Z</time>
      </trkpt>
      <trkpt lat="45.13152" lon="5.72818">
        <ele>438.39999389648</ele>
        <time>2012-06-13T17:10:08.000Z</time>
      </trkpt>
      <trkpt lat="45.13144" lon="5.72821">
        <ele>438.79998779297</ele>
        <time>2012-06-13T17:10:12.000Z</time>
      </trkpt>
      <trkpt lat="45.13135" lon="5.72824">
        <ele>438.39999389648</ele>
        <time>2012-06-13T17:10:16.000Z</time>
      </trkpt>
      <trkpt lat="45.13124" lon="5.7283">
        <ele>439.39999389648</ele>
        <time>2012-06-13T17:10:22.000Z</time>
      </trkpt>
      <trkpt lat="45.13119" lon="5.72835">
        <ele>438.79998779297</ele>
        <time>2012-06-13T17:10:26.000Z</time>
      </trkpt>
      <trkpt lat="45.13116" lon="5.72836">
        <ele>440.39999389648</ele>
        <time>2012-06-13T17:10:29.000Z</time>
      </trkpt>
      <trkpt lat="45.1311" lon="5.72841">
        <ele>442.79998779297</ele>
        <time>2012-06-13T17:10:36.000Z</time>
      </trkpt>
      <trkpt lat="45.13109" lon="5.72843">
        <ele>442.79998779297</ele>
        <time>2012-06-13T17:10:37.000Z</time>
      </trkpt>
      <trkpt lat="45.13093" lon="5.72851">
        <ele>444.20001220703</ele>
        <time>2012-06-13T17:10:43.000Z</time>
      </trkpt>
      <trkpt lat="45.13091" lon="5.72853">
        <ele>444.60000610352</ele>
        <time>2012-06-13T17:10:49.000Z</time>
      </trkpt>
      <trkpt lat="45.13093" lon="5.72851">
        <ele>444.60000610352</ele>
        <time>2012-06-13T17:10:57.000Z</time>
      </trkpt>
      <trkpt lat="45.13091" lon="5.72845">
        <ele>444.60000610352</ele>
        <time>2012-06-13T17:11:03.000Z</time>
      </trkpt>
      <trkpt lat="45.13092" lon="5.72839">
        <ele>444.20001220703</ele>
        <time>2012-06-13T17:11:08.000Z</time>
      </trkpt>
      <trkpt lat="45.13094" lon="5.72839">
        <ele>442.79998779297</ele>
        <time>2012-06-13T17:11:16.000Z</time>
      </trkpt>
      <trkpt lat="45.13094" lon="5.72829">
        <ele>434</ele>
        <time>2012-06-13T17:11:30.000Z</time>
      </trkpt>
      <trkpt lat="45.13095" lon="5.72834">
        <ele>438</ele>
        <time>2012-06-13T17:11:40.000Z</time>
      </trkpt>
      <trkpt lat="45.13095" lon="5.72837">
        <ele>440.79998779297</ele>
        <time>2012-06-13T17:11:49.000Z</time>
      </trkpt>
      <trkpt lat="45.13093" lon="5.72837">
        <ele>440.79998779297</ele>
        <time>2012-06-13T17:11:51.000Z</time>
      </trkpt>
      <trkpt lat="45.13089" lon="5.72837">
        <ele>439.79998779297</ele>
        <time>2012-06-13T17:11:57.000Z</time>
      </trkpt>
      <trkpt lat="45.13083" lon="5.72831">
        <ele>440.39999389648</ele>
        <time>2012-06-13T17:12:03.000Z</time>
      </trkpt>
      <trkpt lat="45.13081" lon="5.72828">
        <ele>440.79998779297</ele>
        <time>2012-06-13T17:12:07.000Z</time>
      </trkpt>
      <trkpt lat="45.13077" lon="5.72822">
        <ele>442.20001220703</ele>
        <time>2012-06-13T17:12:11.000Z</time>
      </trkpt>
      <trkpt lat="45.13073" lon="5.72816">
        <ele>443.20001220703</ele>
        <time>2012-06-13T17:12:15.000Z</time>
      </trkpt>
      <trkpt lat="45.13069" lon="5.72812">
        <ele>444.20001220703</ele>
        <time>2012-06-13T17:12:19.000Z</time>
      </trkpt>
      <trkpt lat="45.13065" lon="5.728">
        <ele>449</ele>
        <time>2012-06-13T17:12:25.000Z</time>
      </trkpt>
      <trkpt lat="45.13063" lon="5.72793">
        <ele>450.39999389648</ele>
        <time>2012-06-13T17:12:32.000Z</time>
      </trkpt>
      <trkpt lat="45.13063" lon="5.7279">
        <ele>451.39999389648</ele>
        <time>2012-06-13T17:12:37.000Z</time>
      </trkpt>
      <trkpt lat="45.13062" lon="5.72786">
        <ele>450.39999389648</ele>
        <time>2012-06-13T17:12:40.000Z</time>
      </trkpt>
      <trkpt lat="45.13061" lon="5.72783">
        <ele>449.39999389648</ele>
        <time>2012-06-13T17:12:42.000Z</time>
      </trkpt>
      <trkpt lat="45.13057" lon="5.72775">
        <ele>448.39999389648</ele>
        <time>2012-06-13T17:12:48.000Z</time>
      </trkpt>
      <trkpt lat="45.13055" lon="5.72774">
        <ele>449</ele>
        <time>2012-06-13T17:12:50.000Z</time>
      </trkpt>
      <trkpt lat="45.13054" lon="5.72771">
        <ele>448</ele>
        <time>2012-06-13T17:12:52.000Z</time>
      </trkpt>
      <trkpt lat="45.13052" lon="5.72766">
        <ele>448</ele>
        <time>2012-06-13T17:12:55.000Z</time>
      </trkpt>
      <trkpt lat="45.1305" lon="5.72757">
        <ele>447</ele>
        <time>2012-06-13T17:13:02.000Z</time>
      </trkpt>
      <trkpt lat="45.13049" lon="5.72754">
        <ele>447.60000610352</ele>
        <time>2012-06-13T17:13:04.000Z</time>
      </trkpt>
      <trkpt lat="45.13049" lon="5.72746">
        <ele>448</ele>
        <time>2012-06-13T17:13:11.000Z</time>
      </trkpt>
      <trkpt lat="45.13048" lon="5.72737">
        <ele>451.79998779297</ele>
        <time>2012-06-13T17:13:19.000Z</time>
      </trkpt>
      <trkpt lat="45.13048" lon="5.7273">
        <ele>450.39999389648</ele>
        <time>2012-06-13T17:13:25.000Z</time>
      </trkpt>
      <trkpt lat="45.1305" lon="5.72728">
        <ele>450</ele>
        <time>2012-06-13T17:13:33.000Z</time>
      </trkpt>
      <trkpt lat="45.13044" lon="5.72721">
        <ele>446.60000610352</ele>
        <time>2012-06-13T17:13:40.000Z</time>
      </trkpt>
      <trkpt lat="45.13041" lon="5.72716">
        <ele>443.20001220703</ele>
        <time>2012-06-13T17:13:45.000Z</time>
      </trkpt>
      <trkpt lat="45.1304" lon="5.72712">
        <ele>440.79998779297</ele>
        <time>2012-06-13T17:13:48.000Z</time>
      </trkpt>
      <trkpt lat="45.13041" lon="5.72705">
        <ele>437.39999389648</ele>
        <time>2012-06-13T17:13:53.000Z</time>
      </trkpt>
      <trkpt lat="45.13041" lon="5.72703">
        <ele>437</ele>
        <time>2012-06-13T17:13:54.000Z</time>
      </trkpt>
      <trkpt lat="45.1304" lon="5.72698">
        <ele>434</ele>
        <time>2012-06-13T17:13:58.000Z</time>
      </trkpt>
      <trkpt lat="45.13037" lon="5.72693">
        <ele>431.20001220703</ele>
        <time>2012-06-13T17:14:04.000Z</time>
      </trkpt>
      <trkpt lat="45.13034" lon="5.72686">
        <ele>433.60000610352</ele>
        <time>2012-06-13T17:14:12.000Z</time>
      </trkpt>
      <trkpt lat="45.13033" lon="5.72682">
        <ele>431.60000610352</ele>
        <time>2012-06-13T17:14:22.000Z</time>
      </trkpt>
      <trkpt lat="45.13032" lon="5.72678">
        <ele>432.60000610352</ele>
        <time>2012-06-13T17:14:24.000Z</time>
      </trkpt>
      <trkpt lat="45.13028" lon="5.72668">
        <ele>432.20001220703</ele>
        <time>2012-06-13T17:14:30.000Z</time>
      </trkpt>
      <trkpt lat="45.13028" lon="5.72666">
        <ele>431.60000610352</ele>
        <time>2012-06-13T17:14:32.000Z</time>
      </trkpt>
      <trkpt lat="45.13024" lon="5.72659">
        <ele>432.20001220703</ele>
        <time>2012-06-13T17:14:38.000Z</time>
      </trkpt>
      <trkpt lat="45.13022" lon="5.72651">
        <ele>433.20001220703</ele>
        <time>2012-06-13T17:14:43.000Z</time>
      </trkpt>
      <trkpt lat="45.13021" lon="5.72645">
        <ele>435</ele>
        <time>2012-06-13T17:14:49.000Z</time>
      </trkpt>
      <trkpt lat="45.1302" lon="5.72641">
        <ele>437</ele>
        <time>2012-06-13T17:14:52.000Z</time>
      </trkpt>
      <trkpt lat="45.13021" lon="5.72636">
        <ele>437.39999389648</ele>
        <time>2012-06-13T17:14:56.000Z</time>
      </trkpt>
      <trkpt lat="45.13022" lon="5.72632">
        <ele>437.39999389648</ele>
        <time>2012-06-13T17:14:59.000Z</time>
      </trkpt>
      <trkpt lat="45.13024" lon="5.72632">
        <ele>439.79998779297</ele>
        <time>2012-06-13T17:15:06.000Z</time>
      </trkpt>
      <trkpt lat="45.13026" lon="5.72632">
        <ele>439.79998779297</ele>
        <time>2012-06-13T17:15:08.000Z</time>
      </trkpt>
      <trkpt lat="45.13034" lon="5.7264">
        <ele>442.20001220703</ele>
        <time>2012-06-13T17:15:13.000Z</time>
      </trkpt>
      <trkpt lat="45.13035" lon="5.72633">
        <ele>438.79998779297</ele>
        <time>2012-06-13T17:15:27.000Z</time>
      </trkpt>
      <trkpt lat="45.13037" lon="5.72632">
        <ele>429.79998779297</ele>
        <time>2012-06-13T17:15:33.000Z</time>
      </trkpt>
      <trkpt lat="45.13035" lon="5.72633">
        <ele>434</ele>
        <time>2012-06-13T17:15:41.000Z</time>
      </trkpt>
      <trkpt lat="45.13032" lon="5.72631">
        <ele>433.60000610352</ele>
        <time>2012-06-13T17:15:55.000Z</time>
      </trkpt>
      <trkpt lat="45.13032" lon="5.72639">
        <ele>434</ele>
        <time>2012-06-13T17:16:05.000Z</time>
      </trkpt>
      <trkpt lat="45.13029" lon="5.72641">
        <ele>430.20001220703</ele>
        <time>2012-06-13T17:16:19.000Z</time>
      </trkpt>
      <trkpt lat="45.13027" lon="5.7264">
        <ele>431.20001220703</ele>
        <time>2012-06-13T17:16:27.000Z</time>
      </trkpt>
      <trkpt lat="45.13023" lon="5.72638">
        <ele>431.20001220703</ele>
        <time>2012-06-13T17:16:32.000Z</time>
      </trkpt>
      <trkpt lat="45.13021" lon="5.7264">
        <ele>430.20001220703</ele>
        <time>2012-06-13T17:16:37.000Z</time>
      </trkpt>
      <trkpt lat="45.13019" lon="5.72644">
        <ele>432.20001220703</ele>
        <time>2012-06-13T17:16:42.000Z</time>
      </trkpt>
      <trkpt lat="45.1302" lon="5.72649">
        <ele>433.60000610352</ele>
        <time>2012-06-13T17:16:48.000Z</time>
      </trkpt>
      <trkpt lat="45.13016" lon="5.72657">
        <ele>433.60000610352</ele>
        <time>2012-06-13T17:16:55.000Z</time>
      </trkpt>
      <trkpt lat="45.13014" lon="5.72658">
        <ele>431.20001220703</ele>
        <time>2012-06-13T17:16:59.000Z</time>
      </trkpt>
      <trkpt lat="45.13009" lon="5.72659">
        <ele>433.60000610352</ele>
        <time>2012-06-13T17:17:04.000Z</time>
      </trkpt>
      <trkpt lat="45.13002" lon="5.72664">
        <ele>438.79998779297</ele>
        <time>2012-06-13T17:17:13.000Z</time>
      </trkpt>
      <trkpt lat="45.12999" lon="5.72663">
        <ele>442.79998779297</ele>
        <time>2012-06-13T17:17:20.000Z</time>
      </trkpt>
      <trkpt lat="45.12998" lon="5.72662">
        <ele>441.79998779297</ele>
        <time>2012-06-13T17:17:24.000Z</time>
      </trkpt>
      <trkpt lat="45.12992" lon="5.72662">
        <ele>443.20001220703</ele>
        <time>2012-06-13T17:17:30.000Z</time>
      </trkpt>
      <trkpt lat="45.12999" lon="5.7266">
        <ele>438.79998779297</ele>
        <time>2012-06-13T17:17:40.000Z</time>
      </trkpt>
      <trkpt lat="45.13002" lon="5.72662">
        <ele>438.79998779297</ele>
        <time>2012-06-13T17:17:45.000Z</time>
      </trkpt>
      <trkpt lat="45.13003" lon="5.72668">
        <ele>440.79998779297</ele>
        <time>2012-06-13T17:17:50.000Z</time>
      </trkpt>
      <trkpt lat="45.13005" lon="5.72672">
        <ele>440.79998779297</ele>
        <time>2012-06-13T17:17:55.000Z</time>
      </trkpt>
      <trkpt lat="45.13009" lon="5.72681">
        <ele>439.79998779297</ele>
        <time>2012-06-13T17:18:01.000Z</time>
      </trkpt>
      <trkpt lat="45.13009" lon="5.72684">
        <ele>439.79998779297</ele>
        <time>2012-06-13T17:18:03.000Z</time>
      </trkpt>
      <trkpt lat="45.13012" lon="5.7269">
        <ele>441.79998779297</ele>
        <time>2012-06-13T17:18:10.000Z</time>
      </trkpt>
      <trkpt lat="45.13016" lon="5.72694">
        <ele>439.39999389648</ele>
        <time>2012-06-13T17:18:20.000Z</time>
      </trkpt>
      <trkpt lat="45.13017" lon="5.72691">
        <ele>438.39999389648</ele>
        <time>2012-06-13T17:18:22.000Z</time>
      </trkpt>
      <trkpt lat="45.1302" lon="5.72691">
        <ele>438</ele>
        <time>2012-06-13T17:18:25.000Z</time>
      </trkpt>
      <trkpt lat="45.13022" lon="5.72691">
        <ele>438.39999389648</ele>
        <time>2012-06-13T17:18:27.000Z</time>
      </trkpt>
      <trkpt lat="45.13029" lon="5.72694">
        <ele>438.79998779297</ele>
        <time>2012-06-13T17:18:33.000Z</time>
      </trkpt>
      <trkpt lat="45.1303" lon="5.72694">
        <ele>443.60000610352</ele>
        <time>2012-06-13T17:18:42.000Z</time>
      </trkpt>
      <trkpt lat="45.13033" lon="5.72696">
        <ele>445.20001220703</ele>
        <time>2012-06-13T17:18:51.000Z</time>
      </trkpt>
      <trkpt lat="45.13037" lon="5.72698">
        <ele>442.20001220703</ele>
        <time>2012-06-13T17:18:58.000Z</time>
      </trkpt>
      <trkpt lat="45.13042" lon="5.72704">
        <ele>440.79998779297</ele>
        <time>2012-06-13T17:19:07.000Z</time>
      </trkpt>
      <trkpt lat="45.13039" lon="5.72709">
        <ele>441.20001220703</ele>
        <time>2012-06-13T17:19:12.000Z</time>
      </trkpt>
      <trkpt lat="45.13041" lon="5.72714">
        <ele>441.79998779297</ele>
        <time>2012-06-13T17:19:18.000Z</time>
      </trkpt>
      <trkpt lat="45.13046" lon="5.7272">
        <ele>445.20001220703</ele>
        <time>2012-06-13T17:19:26.000Z</time>
      </trkpt>
      <trkpt lat="45.13051" lon="5.72718">
        <ele>447</ele>
        <time>2012-06-13T17:19:37.000Z</time>
      </trkpt>
      <trkpt lat="45.13054" lon="5.72714">
        <ele>448.39999389648</ele>
        <time>2012-06-13T17:19:42.000Z</time>
      </trkpt>
      <trkpt lat="45.13067" lon="5.72695">
        <ele>448.39999389648</ele>
        <time>2012-06-13T17:19:49.000Z</time>
      </trkpt>
      <trkpt lat="45.13071" lon="5.72692">
        <ele>448</ele>
        <time>2012-06-13T17:19:51.000Z</time>
      </trkpt>
      <trkpt lat="45.13078" lon="5.7269">
        <ele>448.39999389648</ele>
        <time>2012-06-13T17:19:55.000Z</time>
      </trkpt>
      <trkpt lat="45.1309" lon="5.72684">
        <ele>450</ele>
        <time>2012-06-13T17:20:00.000Z</time>
      </trkpt>
      <trkpt lat="45.13099" lon="5.72675">
        <ele>449</ele>
        <time>2012-06-13T17:20:04.000Z</time>
      </trkpt>
      <trkpt lat="45.13108" lon="5.72669">
        <ele>451.39999389648</ele>
        <time>2012-06-13T17:20:09.000Z</time>
      </trkpt>
      <trkpt lat="45.13115" lon="5.72658">
        <ele>451.79998779297</ele>
        <time>2012-06-13T17:20:14.000Z</time>
      </trkpt>
      <trkpt lat="45.13123" lon="5.72651">
        <ele>450.79998779297</ele>
        <time>2012-06-13T17:20:19.000Z</time>
      </trkpt>
      <trkpt lat="45.13127" lon="5.72651">
        <ele>452.39999389648</ele>
        <time>2012-06-13T17:20:21.000Z</time>
      </trkpt>
      <trkpt lat="45.13133" lon="5.72645">
        <ele>451.79998779297</ele>
        <time>2012-06-13T17:20:25.000Z</time>
      </trkpt>
      <trkpt lat="45.13132" lon="5.72637">
        <ele>449</ele>
        <time>2012-06-13T17:20:30.000Z</time>
      </trkpt>
      <trkpt lat="45.13128" lon="5.72632">
        <ele>449</ele>
        <time>2012-06-13T17:20:33.000Z</time>
      </trkpt>
      <trkpt lat="45.13125" lon="5.72621">
        <ele>446.60000610352</ele>
        <time>2012-06-13T17:20:37.000Z</time>
      </trkpt>
      <trkpt lat="45.13117" lon="5.72611">
        <ele>447</ele>
        <time>2012-06-13T17:20:41.000Z</time>
      </trkpt>
      <trkpt lat="45.1311" lon="5.72598">
        <ele>440.79998779297</ele>
        <time>2012-06-13T17:20:46.000Z</time>
      </trkpt>
      <trkpt lat="45.13103" lon="5.72592">
        <ele>435.60000610352</ele>
        <time>2012-06-13T17:20:50.000Z</time>
      </trkpt>
      <trkpt lat="45.131" lon="5.72588">
        <ele>434</ele>
        <time>2012-06-13T17:20:52.000Z</time>
      </trkpt>
      <trkpt lat="45.13094" lon="5.72577">
        <ele>427.79998779297</ele>
        <time>2012-06-13T17:20:57.000Z</time>
      </trkpt>
      <trkpt lat="45.13084" lon="5.7257">
        <ele>421.60000610352</ele>
        <time>2012-06-13T17:21:01.000Z</time>
      </trkpt>
      <trkpt lat="45.13083" lon="5.7257">
        <ele>420.60000610352</ele>
        <time>2012-06-13T17:21:02.000Z</time>
      </trkpt>
      <trkpt lat="45.13079" lon="5.72556">
        <ele>419.60000610352</ele>
        <time>2012-06-13T17:21:08.000Z</time>
      </trkpt>
      <trkpt lat="45.13077" lon="5.72539">
        <ele>420.20001220703</ele>
        <time>2012-06-13T17:21:14.000Z</time>
      </trkpt>
      <trkpt lat="45.13074" lon="5.72524">
        <ele>421</ele>
        <time>2012-06-13T17:21:19.000Z</time>
      </trkpt>
      <trkpt lat="45.13073" lon="5.7252">
        <ele>421.60000610352</ele>
        <time>2012-06-13T17:21:20.000Z</time>
      </trkpt>
      <trkpt lat="45.13067" lon="5.72505">
        <ele>428.39999389648</ele>
        <time>2012-06-13T17:21:26.000Z</time>
      </trkpt>
      <trkpt lat="45.13063" lon="5.72491">
        <ele>429.20001220703</ele>
        <time>2012-06-13T17:21:31.000Z</time>
      </trkpt>
      <trkpt lat="45.13063" lon="5.72474">
        <ele>427.79998779297</ele>
        <time>2012-06-13T17:21:37.000Z</time>
      </trkpt>
      <trkpt lat="45.1307" lon="5.72458">
        <ele>423</ele>
        <time>2012-06-13T17:21:43.000Z</time>
      </trkpt>
      <trkpt lat="45.13071" lon="5.72446">
        <ele>418.60000610352</ele>
        <time>2012-06-13T17:21:47.000Z</time>
      </trkpt>
      <trkpt lat="45.1307" lon="5.72443">
        <ele>417.20001220703</ele>
        <time>2012-06-13T17:21:48.000Z</time>
      </trkpt>
      <trkpt lat="45.13068" lon="5.72436">
        <ele>413.39999389648</ele>
        <time>2012-06-13T17:21:52.000Z</time>
      </trkpt>
      <trkpt lat="45.13068" lon="5.72434">
        <ele>413</ele>
        <time>2012-06-13T17:21:54.000Z</time>
      </trkpt>
      <trkpt lat="45.13067" lon="5.72433">
        <ele>411</ele>
        <time>2012-06-13T17:21:58.000Z</time>
      </trkpt>
      <trkpt lat="45.13055" lon="5.72433">
        <ele>409</ele>
        <time>2012-06-13T17:22:04.000Z</time>
      </trkpt>
      <trkpt lat="45.13049" lon="5.72435">
        <ele>406.20001220703</ele>
        <time>2012-06-13T17:22:08.000Z</time>
      </trkpt>
      <trkpt lat="45.13046" lon="5.72437">
        <ele>404.79998779297</ele>
        <time>2012-06-13T17:22:10.000Z</time>
      </trkpt>
      <trkpt lat="45.13034" lon="5.72439">
        <ele>402.39999389648</ele>
        <time>2012-06-13T17:22:15.000Z</time>
      </trkpt>
      <trkpt lat="45.13027" lon="5.72441">
        <ele>400</ele>
        <time>2012-06-13T17:22:18.000Z</time>
      </trkpt>
      <trkpt lat="45.1302" lon="5.72445">
        <ele>398.60000610352</ele>
        <time>2012-06-13T17:22:23.000Z</time>
      </trkpt>
      <trkpt lat="45.13019" lon="5.72446">
        <ele>397.60000610352</ele>
        <time>2012-06-13T17:22:30.000Z</time>
      </trkpt>
      <trkpt lat="45.1302" lon="5.72441">
        <ele>396.20001220703</ele>
        <time>2012-06-13T17:22:36.000Z</time>
      </trkpt>
      <trkpt lat="45.13023" lon="5.72439">
        <ele>394.60000610352</ele>
        <time>2012-06-13T17:22:39.000Z</time>
      </trkpt>
      <trkpt lat="45.1303" lon="5.72426">
        <ele>389.79998779297</ele>
        <time>2012-06-13T17:22:45.000Z</time>
      </trkpt>
      <trkpt lat="45.13031" lon="5.72421">
        <ele>388</ele>
        <time>2012-06-13T17:22:47.000Z</time>
      </trkpt>
      <trkpt lat="45.13038" lon="5.72403">
        <ele>382.20001220703</ele>
        <time>2012-06-13T17:22:53.000Z</time>
      </trkpt>
      <trkpt lat="45.13044" lon="5.72394">
        <ele>377.79998779297</ele>
        <time>2012-06-13T17:22:58.000Z</time>
      </trkpt>
      <trkpt lat="45.13048" lon="5.72386">
        <ele>376</ele>
        <time>2012-06-13T17:23:03.000Z</time>
      </trkpt>
      <trkpt lat="45.13054" lon="5.72376">
        <ele>372.60000610352</ele>
        <time>2012-06-13T17:23:08.000Z</time>
      </trkpt>
      <trkpt lat="45.13058" lon="5.7237">
        <ele>371.60000610352</ele>
        <time>2012-06-13T17:23:11.000Z</time>
      </trkpt>
      <trkpt lat="45.13064" lon="5.72357">
        <ele>373</ele>
        <time>2012-06-13T17:23:16.000Z</time>
      </trkpt>
      <trkpt lat="45.13068" lon="5.72352">
        <ele>370.60000610352</ele>
        <time>2012-06-13T17:23:19.000Z</time>
      </trkpt>
      <trkpt lat="45.13074" lon="5.72346">
        <ele>366.20001220703</ele>
        <time>2012-06-13T17:23:22.000Z</time>
      </trkpt>
      <trkpt lat="45.13082" lon="5.72331">
        <ele>361.39999389648</ele>
        <time>2012-06-13T17:23:27.000Z</time>
      </trkpt>
      <trkpt lat="45.13078" lon="5.72323">
        <ele>364.39999389648</ele>
        <time>2012-06-13T17:23:31.000Z</time>
      </trkpt>
      <trkpt lat="45.1306" lon="5.72327">
        <ele>373</ele>
        <time>2012-06-13T17:23:38.000Z</time>
      </trkpt>
      <trkpt lat="45.1305" lon="5.72331">
        <ele>381.60000610352</ele>
        <time>2012-06-13T17:23:41.000Z</time>
      </trkpt>
      <trkpt lat="45.13038" lon="5.72338">
        <ele>391.79998779297</ele>
        <time>2012-06-13T17:23:45.000Z</time>
      </trkpt>
      <trkpt lat="45.13024" lon="5.72346">
        <ele>394.20001220703</ele>
        <time>2012-06-13T17:23:50.000Z</time>
      </trkpt>
      <trkpt lat="45.1301" lon="5.72351">
        <ele>399.39999389648</ele>
        <time>2012-06-13T17:23:54.000Z</time>
      </trkpt>
      <trkpt lat="45.13001" lon="5.72357">
        <ele>400.39999389648</ele>
        <time>2012-06-13T17:23:58.000Z</time>
      </trkpt>
      <trkpt lat="45.12994" lon="5.72364">
        <ele>395.20001220703</ele>
        <time>2012-06-13T17:24:03.000Z</time>
      </trkpt>
      <trkpt lat="45.12989" lon="5.72367">
        <ele>389.39999389648</ele>
        <time>2012-06-13T17:24:07.000Z</time>
      </trkpt>
      <trkpt lat="45.12982" lon="5.72373">
        <ele>388</ele>
        <time>2012-06-13T17:24:11.000Z</time>
      </trkpt>
      <trkpt lat="45.1297" lon="5.72388">
        <ele>384</ele>
        <time>2012-06-13T17:24:18.000Z</time>
      </trkpt>
      <trkpt lat="45.12966" lon="5.72392">
        <ele>384</ele>
        <time>2012-06-13T17:24:20.000Z</time>
      </trkpt>
      <trkpt lat="45.12962" lon="5.72406">
        <ele>381.20001220703</ele>
        <time>2012-06-13T17:24:26.000Z</time>
      </trkpt>
      <trkpt lat="45.12962" lon="5.7241">
        <ele>380.79998779297</ele>
        <time>2012-06-13T17:24:29.000Z</time>
      </trkpt>
      <trkpt lat="45.12961" lon="5.72424">
        <ele>380.20001220703</ele>
        <time>2012-06-13T17:24:34.000Z</time>
      </trkpt>
      <trkpt lat="45.1296" lon="5.72426">
        <ele>380.79998779297</ele>
        <time>2012-06-13T17:24:35.000Z</time>
      </trkpt>
      <trkpt lat="45.12959" lon="5.7243">
        <ele>381.20001220703</ele>
        <time>2012-06-13T17:24:38.000Z</time>
      </trkpt>
      <trkpt lat="45.12958" lon="5.72435">
        <ele>385.60000610352</ele>
        <time>2012-06-13T17:24:42.000Z</time>
      </trkpt>
      <trkpt lat="45.12958" lon="5.72436">
        <ele>389.79998779297</ele>
        <time>2012-06-13T17:24:48.000Z</time>
      </trkpt>
      <trkpt lat="45.12957" lon="5.72439">
        <ele>390.79998779297</ele>
        <time>2012-06-13T17:24:51.000Z</time>
      </trkpt>
      <trkpt lat="45.12955" lon="5.72445">
        <ele>390.79998779297</ele>
        <time>2012-06-13T17:24:55.000Z</time>
      </trkpt>
      <trkpt lat="45.12951" lon="5.72457">
        <ele>391.20001220703</ele>
        <time>2012-06-13T17:24:59.000Z</time>
      </trkpt>
      <trkpt lat="45.12951" lon="5.72459">
        <ele>391.20001220703</ele>
        <time>2012-06-13T17:25:00.000Z</time>
      </trkpt>
      <trkpt lat="45.12949" lon="5.72468">
        <ele>390.39999389648</ele>
        <time>2012-06-13T17:25:05.000Z</time>
      </trkpt>
      <trkpt lat="45.12948" lon="5.72475">
        <ele>391.20001220703</ele>
        <time>2012-06-13T17:25:09.000Z</time>
      </trkpt>
      <trkpt lat="45.12946" lon="5.72481">
        <ele>391.20001220703</ele>
        <time>2012-06-13T17:25:13.000Z</time>
      </trkpt>
      <trkpt lat="45.1294" lon="5.72495">
        <ele>394.60000610352</ele>
        <time>2012-06-13T17:25:21.000Z</time>
      </trkpt>
      <trkpt lat="45.12937" lon="5.72503">
        <ele>391.79998779297</ele>
        <time>2012-06-13T17:25:27.000Z</time>
      </trkpt>
      <trkpt lat="45.12936" lon="5.72508">
        <ele>389.79998779297</ele>
        <time>2012-06-13T17:25:30.000Z</time>
      </trkpt>
      <trkpt lat="45.12934" lon="5.72513">
        <ele>389.79998779297</ele>
        <time>2012-06-13T17:25:33.000Z</time>
      </trkpt>
      <trkpt lat="45.1293" lon="5.72525">
        <ele>382.60000610352</ele>
        <time>2012-06-13T17:25:41.000Z</time>
      </trkpt>
      <trkpt lat="45.12928" lon="5.72528">
        <ele>382.20001220703</ele>
        <time>2012-06-13T17:25:43.000Z</time>
      </trkpt>
      <trkpt lat="45.12927" lon="5.72539">
        <ele>378.39999389648</ele>
        <time>2012-06-13T17:25:49.000Z</time>
      </trkpt>
      <trkpt lat="45.12923" lon="5.72546">
        <ele>377.79998779297</ele>
        <time>2012-06-13T17:25:54.000Z</time>
      </trkpt>
      <trkpt lat="45.12917" lon="5.72548">
        <ele>381.20001220703</ele>
        <time>2012-06-13T17:25:59.000Z</time>
      </trkpt>
      <trkpt lat="45.12914" lon="5.72551">
        <ele>386</ele>
        <time>2012-06-13T17:26:02.000Z</time>
      </trkpt>
      <trkpt lat="45.12907" lon="5.72557">
        <ele>388.39999389648</ele>
        <time>2012-06-13T17:26:07.000Z</time>
      </trkpt>
      <trkpt lat="45.12903" lon="5.7256">
        <ele>387.39999389648</ele>
        <time>2012-06-13T17:26:10.000Z</time>
      </trkpt>
      <trkpt lat="45.129" lon="5.72564">
        <ele>390.39999389648</ele>
        <time>2012-06-13T17:26:14.000Z</time>
      </trkpt>
      <trkpt lat="45.12899" lon="5.72568">
        <ele>390.39999389648</ele>
        <time>2012-06-13T17:26:18.000Z</time>
      </trkpt>
      <trkpt lat="45.12895" lon="5.72569">
        <ele>389.79998779297</ele>
        <time>2012-06-13T17:26:22.000Z</time>
      </trkpt>
      <trkpt lat="45.12888" lon="5.72573">
        <ele>388.79998779297</ele>
        <time>2012-06-13T17:26:27.000Z</time>
      </trkpt>
      <trkpt lat="45.12882" lon="5.72576">
        <ele>385</ele>
        <time>2012-06-13T17:26:32.000Z</time>
      </trkpt>
      <trkpt lat="45.12878" lon="5.72578">
        <ele>385</ele>
        <time>2012-06-13T17:26:35.000Z</time>
      </trkpt>
      <trkpt lat="45.12869" lon="5.72581">
        <ele>388</ele>
        <time>2012-06-13T17:26:40.000Z</time>
      </trkpt>
      <trkpt lat="45.12864" lon="5.72583">
        <ele>389.39999389648</ele>
        <time>2012-06-13T17:26:44.000Z</time>
      </trkpt>
      <trkpt lat="45.1286" lon="5.72585">
        <ele>391.20001220703</ele>
        <time>2012-06-13T17:26:47.000Z</time>
      </trkpt>
      <trkpt lat="45.12854" lon="5.72589">
        <ele>398</ele>
        <time>2012-06-13T17:26:52.000Z</time>
      </trkpt>
      <trkpt lat="45.12856" lon="5.72589">
        <ele>399.39999389648</ele>
        <time>2012-06-13T17:26:58.000Z</time>
      </trkpt>
      <trkpt lat="45.12857" lon="5.72592">
        <ele>396.60000610352</ele>
        <time>2012-06-13T17:27:20.000Z</time>
      </trkpt>
      <trkpt lat="45.1286" lon="5.72592">
        <ele>395.20001220703</ele>
        <time>2012-06-13T17:27:22.000Z</time>
      </trkpt>
      <trkpt lat="45.12869" lon="5.72594">
        <ele>392.79998779297</ele>
        <time>2012-06-13T17:27:27.000Z</time>
      </trkpt>
      <trkpt lat="45.12871" lon="5.72594">
        <ele>389.79998779297</ele>
        <time>2012-06-13T17:27:31.000Z</time>
      </trkpt>
      <trkpt lat="45.12875" lon="5.72594">
        <ele>389.39999389648</ele>
        <time>2012-06-13T17:27:34.000Z</time>
      </trkpt>
      <trkpt lat="45.12879" lon="5.72595">
        <ele>391.79998779297</ele>
        <time>2012-06-13T17:27:40.000Z</time>
      </trkpt>
      <trkpt lat="45.12886" lon="5.72602">
        <ele>400</ele>
        <time>2012-06-13T17:27:58.000Z</time>
      </trkpt>
      <trkpt lat="45.12889" lon="5.72608">
        <ele>396.20001220703</ele>
        <time>2012-06-13T17:28:06.000Z</time>
      </trkpt>
      <trkpt lat="45.12895" lon="5.72616">
        <ele>394.60000610352</ele>
        <time>2012-06-13T17:28:13.000Z</time>
      </trkpt>
      <trkpt lat="45.12899" lon="5.7262">
        <ele>400</ele>
        <time>2012-06-13T17:28:20.000Z</time>
      </trkpt>
      <trkpt lat="45.12904" lon="5.72627">
        <ele>401.39999389648</ele>
        <time>2012-06-13T17:28:36.000Z</time>
      </trkpt>
      <trkpt lat="45.12906" lon="5.72634">
        <ele>399</ele>
        <time>2012-06-13T17:28:43.000Z</time>
      </trkpt>
      <trkpt lat="45.1291" lon="5.7264">
        <ele>401.79998779297</ele>
        <time>2012-06-13T17:28:50.000Z</time>
      </trkpt>
      <trkpt lat="45.12907" lon="5.7264">
        <ele>401</ele>
        <time>2012-06-13T17:28:57.000Z</time>
      </trkpt>
      <trkpt lat="45.12901" lon="5.72639">
        <ele>401</ele>
        <time>2012-06-13T17:29:54.000Z</time>
      </trkpt>
      <trkpt lat="45.12898" lon="5.72635">
        <ele>398</ele>
        <time>2012-06-13T17:29:58.000Z</time>
      </trkpt>
      <trkpt lat="45.12895" lon="5.72633">
        <ele>398</ele>
        <time>2012-06-13T17:30:01.000Z</time>
      </trkpt>
      <trkpt lat="45.12895" lon="5.72628">
        <ele>395.20001220703</ele>
        <time>2012-06-13T17:30:05.000Z</time>
      </trkpt>
      <trkpt lat="45.12893" lon="5.72624">
        <ele>398</ele>
        <time>2012-06-13T17:30:07.000Z</time>
      </trkpt>
      <trkpt lat="45.12889" lon="5.72617">
        <ele>401.79998779297</ele>
        <time>2012-06-13T17:30:13.000Z</time>
      </trkpt>
      <trkpt lat="45.12884" lon="5.72613">
        <ele>396.60000610352</ele>
        <time>2012-06-13T17:30:19.000Z</time>
      </trkpt>
      <trkpt lat="45.12882" lon="5.72609">
        <ele>392.20001220703</ele>
        <time>2012-06-13T17:30:26.000Z</time>
      </trkpt>
      <trkpt lat="45.12879" lon="5.72606">
        <ele>393.20001220703</ele>
        <time>2012-06-13T17:30:32.000Z</time>
      </trkpt>
      <trkpt lat="45.12877" lon="5.72602">
        <ele>394.20001220703</ele>
        <time>2012-06-13T17:30:36.000Z</time>
      </trkpt>
      <trkpt lat="45.12876" lon="5.72595">
        <ele>394.60000610352</ele>
        <time>2012-06-13T17:30:40.000Z</time>
      </trkpt>
      <trkpt lat="45.12873" lon="5.72592">
        <ele>394.20001220703</ele>
        <time>2012-06-13T17:30:44.000Z</time>
      </trkpt>
      <trkpt lat="45.12869" lon="5.72588">
        <ele>395.20001220703</ele>
        <time>2012-06-13T17:30:50.000Z</time>
      </trkpt>
      <trkpt lat="45.12864" lon="5.72584">
        <ele>394.60000610352</ele>
        <time>2012-06-13T17:30:56.000Z</time>
      </trkpt>
      <trkpt lat="45.12862" lon="5.72588">
        <ele>386.39999389648</ele>
        <time>2012-06-13T17:31:04.000Z</time>
      </trkpt>
      <trkpt lat="45.12858" lon="5.72592">
        <ele>390.39999389648</ele>
        <time>2012-06-13T17:31:10.000Z</time>
      </trkpt>
      <trkpt lat="45.1286" lon="5.72592">
        <ele>391.20001220703</ele>
        <time>2012-06-13T17:31:14.000Z</time>
      </trkpt>
      <trkpt lat="45.12853" lon="5.72594">
        <ele>392.20001220703</ele>
        <time>2012-06-13T17:31:19.000Z</time>
      </trkpt>
      <trkpt lat="45.1285" lon="5.72601">
        <ele>388.79998779297</ele>
        <time>2012-06-13T17:31:24.000Z</time>
      </trkpt>
      <trkpt lat="45.12848" lon="5.7261">
        <ele>390.79998779297</ele>
        <time>2012-06-13T17:31:30.000Z</time>
      </trkpt>
      <trkpt lat="45.12844" lon="5.72619">
        <ele>389.39999389648</ele>
        <time>2012-06-13T17:31:36.000Z</time>
      </trkpt>
      <trkpt lat="45.1284" lon="5.72628">
        <ele>391.20001220703</ele>
        <time>2012-06-13T17:31:42.000Z</time>
      </trkpt>
      <trkpt lat="45.12837" lon="5.72636">
        <ele>389.79998779297</ele>
        <time>2012-06-13T17:31:46.000Z</time>
      </trkpt>
      <trkpt lat="45.12835" lon="5.72646">
        <ele>391.20001220703</ele>
        <time>2012-06-13T17:31:51.000Z</time>
      </trkpt>
      <trkpt lat="45.12833" lon="5.72652">
        <ele>395.60000610352</ele>
        <time>2012-06-13T17:31:55.000Z</time>
      </trkpt>
      <trkpt lat="45.12831" lon="5.72662">
        <ele>399.39999389648</ele>
        <time>2012-06-13T17:32:01.000Z</time>
      </trkpt>
      <trkpt lat="45.12833" lon="5.72669">
        <ele>404.79998779297</ele>
        <time>2012-06-13T17:32:05.000Z</time>
      </trkpt>
      <trkpt lat="45.12834" lon="5.72673">
        <ele>408.20001220703</ele>
        <time>2012-06-13T17:32:08.000Z</time>
      </trkpt>
      <trkpt lat="45.12835" lon="5.7268">
        <ele>413.79998779297</ele>
        <time>2012-06-13T17:32:12.000Z</time>
      </trkpt>
      <trkpt lat="45.1284" lon="5.72684">
        <ele>410.60000610352</ele>
        <time>2012-06-13T17:32:16.000Z</time>
      </trkpt>
      <trkpt lat="45.12841" lon="5.72692">
        <ele>410</ele>
        <time>2012-06-13T17:32:21.000Z</time>
      </trkpt>
      <trkpt lat="45.12841" lon="5.72694">
        <ele>412</ele>
        <time>2012-06-13T17:32:22.000Z</time>
      </trkpt>
      <trkpt lat="45.12843" lon="5.72702">
        <ele>410</ele>
        <time>2012-06-13T17:32:27.000Z</time>
      </trkpt>
      <trkpt lat="45.12842" lon="5.72703">
        <ele>410</ele>
        <time>2012-06-13T17:32:28.000Z</time>
      </trkpt>
      <trkpt lat="45.12841" lon="5.72708">
        <ele>408.60000610352</ele>
        <time>2012-06-13T17:32:30.000Z</time>
      </trkpt>
      <trkpt lat="45.12845" lon="5.72719">
        <ele>405.79998779297</ele>
        <time>2012-06-13T17:32:36.000Z</time>
      </trkpt>
      <trkpt lat="45.12845" lon="5.72721">
        <ele>404.20001220703</ele>
        <time>2012-06-13T17:32:37.000Z</time>
      </trkpt>
      <trkpt lat="45.12847" lon="5.72729">
        <ele>402.79998779297</ele>
        <time>2012-06-13T17:32:41.000Z</time>
      </trkpt>
      <trkpt lat="45.12844" lon="5.72736">
        <ele>408.20001220703</ele>
        <time>2012-06-13T17:32:46.000Z</time>
      </trkpt>
      <trkpt lat="45.12843" lon="5.72747">
        <ele>414.79998779297</ele>
        <time>2012-06-13T17:32:52.000Z</time>
      </trkpt>
      <trkpt lat="45.12844" lon="5.72755">
        <ele>416.79998779297</ele>
        <time>2012-06-13T17:32:57.000Z</time>
      </trkpt>
      <trkpt lat="45.12844" lon="5.72757">
        <ele>417.79998779297</ele>
        <time>2012-06-13T17:32:58.000Z</time>
      </trkpt>
      <trkpt lat="45.12843" lon="5.72766">
        <ele>421</ele>
        <time>2012-06-13T17:33:03.000Z</time>
      </trkpt>
      <trkpt lat="45.12839" lon="5.72773">
        <ele>429.79998779297</ele>
        <time>2012-06-13T17:33:07.000Z</time>
      </trkpt>
      <trkpt lat="45.12839" lon="5.72781">
        <ele>431.60000610352</ele>
        <time>2012-06-13T17:33:12.000Z</time>
      </trkpt>
      <trkpt lat="45.1283" lon="5.72792">
        <ele>437.39999389648</ele>
        <time>2012-06-13T17:33:19.000Z</time>
      </trkpt>
      <trkpt lat="45.12827" lon="5.72798">
        <ele>433.20001220703</ele>
        <time>2012-06-13T17:33:25.000Z</time>
      </trkpt>
      <trkpt lat="45.12823" lon="5.72803">
        <ele>429.79998779297</ele>
        <time>2012-06-13T17:33:30.000Z</time>
      </trkpt>
      <trkpt lat="45.1282" lon="5.72806">
        <ele>429.79998779297</ele>
        <time>2012-06-13T17:33:33.000Z</time>
      </trkpt>
      <trkpt lat="45.12815" lon="5.72811">
        <ele>427.79998779297</ele>
        <time>2012-06-13T17:33:39.000Z</time>
      </trkpt>
      <trkpt lat="45.12812" lon="5.72819">
        <ele>426</ele>
        <time>2012-06-13T17:33:45.000Z</time>
      </trkpt>
      <trkpt lat="45.12811" lon="5.72823">
        <ele>422.60000610352</ele>
        <time>2012-06-13T17:33:50.000Z</time>
      </trkpt>
      <trkpt lat="45.1281" lon="5.7283">
        <ele>422.60000610352</ele>
        <time>2012-06-13T17:33:55.000Z</time>
      </trkpt>
      <trkpt lat="45.12808" lon="5.72837">
        <ele>424</ele>
        <time>2012-06-13T17:34:00.000Z</time>
      </trkpt>
      <trkpt lat="45.12806" lon="5.72842">
        <ele>422.60000610352</ele>
        <time>2012-06-13T17:34:04.000Z</time>
      </trkpt>
      <trkpt lat="45.12806" lon="5.72846">
        <ele>421</ele>
        <time>2012-06-13T17:34:07.000Z</time>
      </trkpt>
      <trkpt lat="45.12805" lon="5.72852">
        <ele>426</ele>
        <time>2012-06-13T17:34:12.000Z</time>
      </trkpt>
      <trkpt lat="45.12799" lon="5.72861">
        <ele>432.60000610352</ele>
        <time>2012-06-13T17:34:17.000Z</time>
      </trkpt>
      <trkpt lat="45.12791" lon="5.72872">
        <ele>435</ele>
        <time>2012-06-13T17:34:23.000Z</time>
      </trkpt>
      <trkpt lat="45.12791" lon="5.72874">
        <ele>434.60000610352</ele>
        <time>2012-06-13T17:34:24.000Z</time>
      </trkpt>
      <trkpt lat="45.12785" lon="5.72883">
        <ele>432.20001220703</ele>
        <time>2012-06-13T17:34:29.000Z</time>
      </trkpt>
      <trkpt lat="45.1278" lon="5.72889">
        <ele>431.60000610352</ele>
        <time>2012-06-13T17:34:32.000Z</time>
      </trkpt>
      <trkpt lat="45.1277" lon="5.72906">
        <ele>430.79998779297</ele>
        <time>2012-06-13T17:34:38.000Z</time>
      </trkpt>
      <trkpt lat="45.12768" lon="5.72912">
        <ele>430.20001220703</ele>
        <time>2012-06-13T17:34:40.000Z</time>
      </trkpt>
      <trkpt lat="45.12753" lon="5.72927">
        <ele>433.20001220703</ele>
        <time>2012-06-13T17:34:46.000Z</time>
      </trkpt>
      <trkpt lat="45.12749" lon="5.72937">
        <ele>431.20001220703</ele>
        <time>2012-06-13T17:34:49.000Z</time>
      </trkpt>
      <trkpt lat="45.12739" lon="5.72952">
        <ele>431.20001220703</ele>
        <time>2012-06-13T17:34:54.000Z</time>
      </trkpt>
      <trkpt lat="45.12736" lon="5.72957">
        <ele>430.20001220703</ele>
        <time>2012-06-13T17:34:56.000Z</time>
      </trkpt>
      <trkpt lat="45.1273" lon="5.7297">
        <ele>430.20001220703</ele>
        <time>2012-06-13T17:35:01.000Z</time>
      </trkpt>
      <trkpt lat="45.12728" lon="5.72976">
        <ele>430.20001220703</ele>
        <time>2012-06-13T17:35:03.000Z</time>
      </trkpt>
      <trkpt lat="45.12723" lon="5.72985">
        <ele>430.20001220703</ele>
        <time>2012-06-13T17:35:06.000Z</time>
      </trkpt>
      <trkpt lat="45.12711" lon="5.73001">
        <ele>428.79998779297</ele>
        <time>2012-06-13T17:35:12.000Z</time>
      </trkpt>
      <trkpt lat="45.12695" lon="5.7302">
        <ele>430.79998779297</ele>
        <time>2012-06-13T17:35:19.000Z</time>
      </trkpt>
      <trkpt lat="45.1269" lon="5.73029">
        <ele>431.20001220703</ele>
        <time>2012-06-13T17:35:22.000Z</time>
      </trkpt>
      <trkpt lat="45.12686" lon="5.73039">
        <ele>424.39999389648</ele>
        <time>2012-06-13T17:35:27.000Z</time>
      </trkpt>
      <trkpt lat="45.12687" lon="5.73043">
        <ele>420.60000610352</ele>
        <time>2012-06-13T17:35:34.000Z</time>
      </trkpt>
      <trkpt lat="45.12682" lon="5.73045">
        <ele>420.20001220703</ele>
        <time>2012-06-13T17:35:38.000Z</time>
      </trkpt>
      <trkpt lat="45.12675" lon="5.73058">
        <ele>417.79998779297</ele>
        <time>2012-06-13T17:35:44.000Z</time>
      </trkpt>
      <trkpt lat="45.12674" lon="5.73066">
        <ele>417.20001220703</ele>
        <time>2012-06-13T17:35:47.000Z</time>
      </trkpt>
      <trkpt lat="45.12672" lon="5.73078">
        <ele>415.39999389648</ele>
        <time>2012-06-13T17:35:53.000Z</time>
      </trkpt>
      <trkpt lat="45.12669" lon="5.73084">
        <ele>418.60000610352</ele>
        <time>2012-06-13T17:36:01.000Z</time>
      </trkpt>
      <trkpt lat="45.12667" lon="5.73097">
        <ele>424.39999389648</ele>
        <time>2012-06-13T17:36:06.000Z</time>
      </trkpt>
      <trkpt lat="45.12666" lon="5.73101">
        <ele>428.39999389648</ele>
        <time>2012-06-13T17:36:08.000Z</time>
      </trkpt>
      <trkpt lat="45.1266" lon="5.73107">
        <ele>434.60000610352</ele>
        <time>2012-06-13T17:36:12.000Z</time>
      </trkpt>
      <trkpt lat="45.12655" lon="5.73113">
        <ele>435.60000610352</ele>
        <time>2012-06-13T17:36:17.000Z</time>
      </trkpt>
      <trkpt lat="45.12648" lon="5.73121">
        <ele>429.79998779297</ele>
        <time>2012-06-13T17:36:21.000Z</time>
      </trkpt>
      <trkpt lat="45.12636" lon="5.7313">
        <ele>425.39999389648</ele>
        <time>2012-06-13T17:36:27.000Z</time>
      </trkpt>
      <trkpt lat="45.12634" lon="5.73131">
        <ele>425.39999389648</ele>
        <time>2012-06-13T17:36:28.000Z</time>
      </trkpt>
      <trkpt lat="45.12629" lon="5.73136">
        <ele>424</ele>
        <time>2012-06-13T17:36:31.000Z</time>
      </trkpt>
      <trkpt lat="45.12617" lon="5.73152">
        <ele>421.60000610352</ele>
        <time>2012-06-13T17:36:37.000Z</time>
      </trkpt>
      <trkpt lat="45.12608" lon="5.73159">
        <ele>421.60000610352</ele>
        <time>2012-06-13T17:36:43.000Z</time>
      </trkpt>
      <trkpt lat="45.12601" lon="5.73166">
        <ele>420.20001220703</ele>
        <time>2012-06-13T17:36:47.000Z</time>
      </trkpt>
      <trkpt lat="45.12593" lon="5.73177">
        <ele>416.79998779297</ele>
        <time>2012-06-13T17:36:52.000Z</time>
      </trkpt>
      <trkpt lat="45.12586" lon="5.73193">
        <ele>411</ele>
        <time>2012-06-13T17:36:57.000Z</time>
      </trkpt>
      <trkpt lat="45.12583" lon="5.732">
        <ele>408.60000610352</ele>
        <time>2012-06-13T17:36:59.000Z</time>
      </trkpt>
      <trkpt lat="45.1258" lon="5.73222">
        <ele>403.79998779297</ele>
        <time>2012-06-13T17:37:05.000Z</time>
      </trkpt>
      <trkpt lat="45.12582" lon="5.7324">
        <ele>401</ele>
        <time>2012-06-13T17:37:10.000Z</time>
      </trkpt>
      <trkpt lat="45.12582" lon="5.73243">
        <ele>401</ele>
        <time>2012-06-13T17:37:11.000Z</time>
      </trkpt>
      <trkpt lat="45.12579" lon="5.73256">
        <ele>402.39999389648</ele>
        <time>2012-06-13T17:37:15.000Z</time>
      </trkpt>
      <trkpt lat="45.12571" lon="5.73274">
        <ele>401.39999389648</ele>
        <time>2012-06-13T17:37:20.000Z</time>
      </trkpt>
      <trkpt lat="45.12567" lon="5.73292">
        <ele>398</ele>
        <time>2012-06-13T17:37:25.000Z</time>
      </trkpt>
      <trkpt lat="45.12564" lon="5.73312">
        <ele>396.20001220703</ele>
        <time>2012-06-13T17:37:31.000Z</time>
      </trkpt>
      <trkpt lat="45.12569" lon="5.73329">
        <ele>396.20001220703</ele>
        <time>2012-06-13T17:37:36.000Z</time>
      </trkpt>
      <trkpt lat="45.12569" lon="5.73332">
        <ele>397.60000610352</ele>
        <time>2012-06-13T17:37:37.000Z</time>
      </trkpt>
      <trkpt lat="45.12572" lon="5.73343">
        <ele>400</ele>
        <time>2012-06-13T17:37:41.000Z</time>
      </trkpt>
      <trkpt lat="45.12571" lon="5.73358">
        <ele>403.79998779297</ele>
        <time>2012-06-13T17:37:46.000Z</time>
      </trkpt>
      <trkpt lat="45.12575" lon="5.73375">
        <ele>407.60000610352</ele>
        <time>2012-06-13T17:37:52.000Z</time>
      </trkpt>
      <trkpt lat="45.12573" lon="5.73384">
        <ele>409</ele>
        <time>2012-06-13T17:37:55.000Z</time>
      </trkpt>
      <trkpt lat="45.12568" lon="5.734">
        <ele>407.60000610352</ele>
        <time>2012-06-13T17:38:00.000Z</time>
      </trkpt>
      <trkpt lat="45.1256" lon="5.73413">
        <ele>411.39999389648</ele>
        <time>2012-06-13T17:38:04.000Z</time>
      </trkpt>
      <trkpt lat="45.12552" lon="5.73427">
        <ele>410</ele>
        <time>2012-06-13T17:38:08.000Z</time>
      </trkpt>
      <trkpt lat="45.12544" lon="5.73445">
        <ele>407.20001220703</ele>
        <time>2012-06-13T17:38:13.000Z</time>
      </trkpt>
      <trkpt lat="45.1253" lon="5.73454">
        <ele>411</ele>
        <time>2012-06-13T17:38:18.000Z</time>
      </trkpt>
      <trkpt lat="45.12525" lon="5.73458">
        <ele>411</ele>
        <time>2012-06-13T17:38:21.000Z</time>
      </trkpt>
      <trkpt lat="45.12521" lon="5.7346">
        <ele>410.60000610352</ele>
        <time>2012-06-13T17:38:23.000Z</time>
      </trkpt>
      <trkpt lat="45.12508" lon="5.73461">
        <ele>412.39999389648</ele>
        <time>2012-06-13T17:38:28.000Z</time>
      </trkpt>
      <trkpt lat="45.12504" lon="5.73461">
        <ele>413</ele>
        <time>2012-06-13T17:38:30.000Z</time>
      </trkpt>
      <trkpt lat="45.12486" lon="5.73467">
        <ele>414.39999389648</ele>
        <time>2012-06-13T17:38:37.000Z</time>
      </trkpt>
      <trkpt lat="45.12476" lon="5.73466">
        <ele>412</ele>
        <time>2012-06-13T17:38:42.000Z</time>
      </trkpt>
      <trkpt lat="45.12468" lon="5.73467">
        <ele>407.20001220703</ele>
        <time>2012-06-13T17:38:47.000Z</time>
      </trkpt>
      <trkpt lat="45.12459" lon="5.73475">
        <ele>401.79998779297</ele>
        <time>2012-06-13T17:38:53.000Z</time>
      </trkpt>
      <trkpt lat="45.12451" lon="5.73484">
        <ele>400.39999389648</ele>
        <time>2012-06-13T17:38:56.000Z</time>
      </trkpt>
      <trkpt lat="45.12437" lon="5.73502">
        <ele>396.60000610352</ele>
        <time>2012-06-13T17:39:02.000Z</time>
      </trkpt>
      <trkpt lat="45.12428" lon="5.73525">
        <ele>392.20001220703</ele>
        <time>2012-06-13T17:39:07.000Z</time>
      </trkpt>
      <trkpt lat="45.1242" lon="5.73549">
        <ele>389.39999389648</ele>
        <time>2012-06-13T17:39:12.000Z</time>
      </trkpt>
      <trkpt lat="45.12416" lon="5.73563">
        <ele>387.39999389648</ele>
        <time>2012-06-13T17:39:15.000Z</time>
      </trkpt>
      <trkpt lat="45.1241" lon="5.73587">
        <ele>384</ele>
        <time>2012-06-13T17:39:20.000Z</time>
      </trkpt>
      <trkpt lat="45.12408" lon="5.73592">
        <ele>383.60000610352</ele>
        <time>2012-06-13T17:39:21.000Z</time>
      </trkpt>
      <trkpt lat="45.12402" lon="5.73609">
        <ele>381.60000610352</ele>
        <time>2012-06-13T17:39:26.000Z</time>
      </trkpt>
      <trkpt lat="45.12401" lon="5.73611">
        <ele>382.20001220703</ele>
        <time>2012-06-13T17:39:28.000Z</time>
      </trkpt>
    </trkseg>
  </trk>
</gpx>